<?xml version="1.0" encoding="UTF-8" standalone="no" ?>
<gpx xmlns="http://www.topografix.com/GPX/1/1" xmlns:xsi="http://www.w3.org/2001/XMLSchema-instance" xsi:schemaLocation="http://www.topografix.com/GPX/1/1 http://www.topografix.com/GPX/1/1/gpx.xsd" version="1.1" creator="VisuGPX - https://www.visugpx.com">
  <metadata>
    <name>Randos</name>
    <desc><![CDATA[rando Gleizé]]></desc>
  </metadata>
  <trk>
    <name><![CDATA[Tracé actuel: 05 DEC 2013 08:33]]></name>
    <trkseg>
      <trkpt lat="45.9918" lon="4.69338">
        <ele>372.17</ele>
        <time>2013-12-05T07:33:00Z</time>
      </trkpt>
      <trkpt lat="45.9918" lon="4.69338">
        <ele>240.47</ele>
        <time>2013-12-05T07:33:04Z</time>
      </trkpt>
      <trkpt lat="45.9918" lon="4.69338">
        <ele>239.99</ele>
        <time>2013-12-05T07:33:05Z</time>
      </trkpt>
      <trkpt lat="45.99178" lon="4.69337">
        <ele>240.95</ele>
        <time>2013-12-05T07:33:36Z</time>
      </trkpt>
      <trkpt lat="45.99181" lon="4.69338">
        <ele>240.47</ele>
        <time>2013-12-05T07:33:55Z</time>
      </trkpt>
      <trkpt lat="45.99181" lon="4.69339">
        <ele>240.95</ele>
        <time>2013-12-05T07:34:18Z</time>
      </trkpt>
      <trkpt lat="45.99176" lon="4.69335">
        <ele>241.43</ele>
        <time>2013-12-05T07:34:47Z</time>
      </trkpt>
      <trkpt lat="45.99179" lon="4.69336">
        <ele>241.43</ele>
        <time>2013-12-05T07:35:11Z</time>
      </trkpt>
      <trkpt lat="45.99174" lon="4.69338">
        <ele>241.43</ele>
        <time>2013-12-05T07:35:23Z</time>
      </trkpt>
      <trkpt lat="45.99162" lon="4.69334">
        <ele>241.43</ele>
        <time>2013-12-05T07:35:38Z</time>
      </trkpt>
      <trkpt lat="45.9915" lon="4.69336">
        <ele>240.95</ele>
        <time>2013-12-05T07:35:52Z</time>
      </trkpt>
      <trkpt lat="45.99147" lon="4.69338">
        <ele>240.95</ele>
        <time>2013-12-05T07:35:55Z</time>
      </trkpt>
      <trkpt lat="45.99138" lon="4.69338">
        <ele>240.95</ele>
        <time>2013-12-05T07:36:11Z</time>
      </trkpt>
      <trkpt lat="45.99133" lon="4.6934">
        <ele>240.47</ele>
        <time>2013-12-05T07:36:19Z</time>
      </trkpt>
      <trkpt lat="45.99117" lon="4.69346">
        <ele>239.99</ele>
        <time>2013-12-05T07:36:35Z</time>
      </trkpt>
      <trkpt lat="45.99103" lon="4.69351">
        <ele>239.51</ele>
        <time>2013-12-05T07:36:50Z</time>
      </trkpt>
      <trkpt lat="45.99099" lon="4.69352">
        <ele>239.51</ele>
        <time>2013-12-05T07:36:54Z</time>
      </trkpt>
      <trkpt lat="45.99096" lon="4.69352">
        <ele>239.51</ele>
        <time>2013-12-05T07:36:56Z</time>
      </trkpt>
      <trkpt lat="45.99085" lon="4.69356">
        <ele>239.02</ele>
        <time>2013-12-05T07:37:07Z</time>
      </trkpt>
      <trkpt lat="45.99067" lon="4.69362">
        <ele>238.54</ele>
        <time>2013-12-05T07:37:23Z</time>
      </trkpt>
      <trkpt lat="45.99047" lon="4.69368">
        <ele>238.54</ele>
        <time>2013-12-05T07:37:42Z</time>
      </trkpt>
      <trkpt lat="45.99025" lon="4.69373">
        <ele>238.06</ele>
        <time>2013-12-05T07:38:02Z</time>
      </trkpt>
      <trkpt lat="45.99008" lon="4.69378">
        <ele>238.54</ele>
        <time>2013-12-05T07:38:18Z</time>
      </trkpt>
      <trkpt lat="45.9899" lon="4.69383">
        <ele>238.06</ele>
        <time>2013-12-05T07:38:35Z</time>
      </trkpt>
      <trkpt lat="45.98971" lon="4.69388">
        <ele>238.54</ele>
        <time>2013-12-05T07:38:53Z</time>
      </trkpt>
      <trkpt lat="45.98956" lon="4.69393">
        <ele>238.06</ele>
        <time>2013-12-05T07:39:08Z</time>
      </trkpt>
      <trkpt lat="45.9893" lon="4.69398">
        <ele>238.54</ele>
        <time>2013-12-05T07:39:30Z</time>
      </trkpt>
      <trkpt lat="45.98909" lon="4.69403">
        <ele>238.54</ele>
        <time>2013-12-05T07:39:50Z</time>
      </trkpt>
      <trkpt lat="45.98884" lon="4.69411">
        <ele>239.51</ele>
        <time>2013-12-05T07:40:14Z</time>
      </trkpt>
      <trkpt lat="45.98865" lon="4.69415">
        <ele>239.51</ele>
        <time>2013-12-05T07:40:33Z</time>
      </trkpt>
      <trkpt lat="45.98848" lon="4.69414">
        <ele>239.99</ele>
        <time>2013-12-05T07:40:46Z</time>
      </trkpt>
      <trkpt lat="45.98827" lon="4.69426">
        <ele>239.99</ele>
        <time>2013-12-05T07:41:02Z</time>
      </trkpt>
      <trkpt lat="45.9881" lon="4.69435">
        <ele>239.99</ele>
        <time>2013-12-05T07:41:18Z</time>
      </trkpt>
      <trkpt lat="45.988" lon="4.69441">
        <ele>240.47</ele>
        <time>2013-12-05T07:41:28Z</time>
      </trkpt>
      <trkpt lat="45.98787" lon="4.69443">
        <ele>239.99</ele>
        <time>2013-12-05T07:41:40Z</time>
      </trkpt>
      <trkpt lat="45.98779" lon="4.69452">
        <ele>239.99</ele>
        <time>2013-12-05T07:41:52Z</time>
      </trkpt>
      <trkpt lat="45.9877" lon="4.69458">
        <ele>239.99</ele>
        <time>2013-12-05T07:42:02Z</time>
      </trkpt>
      <trkpt lat="45.98753" lon="4.69464">
        <ele>239.51</ele>
        <time>2013-12-05T07:42:18Z</time>
      </trkpt>
      <trkpt lat="45.98748" lon="4.6946">
        <ele>239.51</ele>
        <time>2013-12-05T07:42:32Z</time>
      </trkpt>
      <trkpt lat="45.98747" lon="4.69457">
        <ele>239.02</ele>
        <time>2013-12-05T07:43:00Z</time>
      </trkpt>
      <trkpt lat="45.98747" lon="4.69459">
        <ele>239.02</ele>
        <time>2013-12-05T07:43:13Z</time>
      </trkpt>
      <trkpt lat="45.98746" lon="4.69461">
        <ele>239.02</ele>
        <time>2013-12-05T07:43:15Z</time>
      </trkpt>
      <trkpt lat="45.98753" lon="4.69473">
        <ele>239.51</ele>
        <time>2013-12-05T07:43:27Z</time>
      </trkpt>
      <trkpt lat="45.98756" lon="4.69478">
        <ele>239.99</ele>
        <time>2013-12-05T07:43:41Z</time>
      </trkpt>
      <trkpt lat="45.9876" lon="4.69483">
        <ele>239.99</ele>
        <time>2013-12-05T07:43:45Z</time>
      </trkpt>
      <trkpt lat="45.98763" lon="4.69489">
        <ele>239.99</ele>
        <time>2013-12-05T07:43:49Z</time>
      </trkpt>
      <trkpt lat="45.98777" lon="4.69513">
        <ele>240.47</ele>
        <time>2013-12-05T07:44:06Z</time>
      </trkpt>
      <trkpt lat="45.98782" lon="4.69527">
        <ele>240.95</ele>
        <time>2013-12-05T07:44:17Z</time>
      </trkpt>
      <trkpt lat="45.98786" lon="4.69541">
        <ele>240.47</ele>
        <time>2013-12-05T07:44:25Z</time>
      </trkpt>
      <trkpt lat="45.98777" lon="4.69555">
        <ele>240.95</ele>
        <time>2013-12-05T07:44:36Z</time>
      </trkpt>
      <trkpt lat="45.9876" lon="4.69552">
        <ele>240.95</ele>
        <time>2013-12-05T07:44:52Z</time>
      </trkpt>
      <trkpt lat="45.9874" lon="4.69541">
        <ele>240.47</ele>
        <time>2013-12-05T07:45:10Z</time>
      </trkpt>
      <trkpt lat="45.98736" lon="4.69539">
        <ele>240.47</ele>
        <time>2013-12-05T07:45:14Z</time>
      </trkpt>
      <trkpt lat="45.98716" lon="4.69521">
        <ele>239.02</ele>
        <time>2013-12-05T07:45:34Z</time>
      </trkpt>
      <trkpt lat="45.98694" lon="4.69496">
        <ele>237.58</ele>
        <time>2013-12-05T07:45:54Z</time>
      </trkpt>
      <trkpt lat="45.98674" lon="4.69479">
        <ele>235.18</ele>
        <time>2013-12-05T07:46:11Z</time>
      </trkpt>
      <trkpt lat="45.98657" lon="4.6946">
        <ele>233.26</ele>
        <time>2013-12-05T07:46:28Z</time>
      </trkpt>
      <trkpt lat="45.9864" lon="4.69444">
        <ele>231.33</ele>
        <time>2013-12-05T07:46:45Z</time>
      </trkpt>
      <trkpt lat="45.98626" lon="4.6943">
        <ele>229.41</ele>
        <time>2013-12-05T07:46:59Z</time>
      </trkpt>
      <trkpt lat="45.98608" lon="4.69408">
        <ele>226.05</ele>
        <time>2013-12-05T07:47:17Z</time>
      </trkpt>
      <trkpt lat="45.98593" lon="4.69387">
        <ele>223.16</ele>
        <time>2013-12-05T07:47:34Z</time>
      </trkpt>
      <trkpt lat="45.9858" lon="4.69369">
        <ele>220.28</ele>
        <time>2013-12-05T07:47:51Z</time>
      </trkpt>
      <trkpt lat="45.98576" lon="4.69368">
        <ele>220.28</ele>
        <time>2013-12-05T07:47:52Z</time>
      </trkpt>
      <trkpt lat="45.98556" lon="4.69354">
        <ele>216.91</ele>
        <time>2013-12-05T07:48:08Z</time>
      </trkpt>
      <trkpt lat="45.98537" lon="4.69338">
        <ele>213.55</ele>
        <time>2013-12-05T07:48:26Z</time>
      </trkpt>
      <trkpt lat="45.98522" lon="4.69326">
        <ele>210.67</ele>
        <time>2013-12-05T07:48:39Z</time>
      </trkpt>
      <trkpt lat="45.98503" lon="4.69316">
        <ele>207.3</ele>
        <time>2013-12-05T07:48:58Z</time>
      </trkpt>
      <trkpt lat="45.98484" lon="4.69311">
        <ele>203.94</ele>
        <time>2013-12-05T07:49:12Z</time>
      </trkpt>
      <trkpt lat="45.98469" lon="4.69302">
        <ele>202.01</ele>
        <time>2013-12-05T07:49:26Z</time>
      </trkpt>
      <trkpt lat="45.98455" lon="4.693">
        <ele>200.09</ele>
        <time>2013-12-05T07:49:40Z</time>
      </trkpt>
      <trkpt lat="45.98452" lon="4.69303">
        <ele>199.61</ele>
        <time>2013-12-05T07:49:56Z</time>
      </trkpt>
      <trkpt lat="45.9845" lon="4.69305">
        <ele>199.61</ele>
        <time>2013-12-05T07:49:58Z</time>
      </trkpt>
      <trkpt lat="45.98432" lon="4.69302">
        <ele>198.65</ele>
        <time>2013-12-05T07:50:16Z</time>
      </trkpt>
      <trkpt lat="45.98428" lon="4.69298">
        <ele>198.65</ele>
        <time>2013-12-05T07:50:28Z</time>
      </trkpt>
      <trkpt lat="45.9843" lon="4.69296">
        <ele>198.65</ele>
        <time>2013-12-05T07:50:39Z</time>
      </trkpt>
      <trkpt lat="45.98407" lon="4.69301">
        <ele>197.69</ele>
        <time>2013-12-05T07:50:55Z</time>
      </trkpt>
      <trkpt lat="45.98384" lon="4.69303">
        <ele>196.73</ele>
        <time>2013-12-05T07:51:11Z</time>
      </trkpt>
      <trkpt lat="45.98359" lon="4.69304">
        <ele>197.21</ele>
        <time>2013-12-05T07:51:29Z</time>
      </trkpt>
      <trkpt lat="45.98337" lon="4.69309">
        <ele>196.25</ele>
        <time>2013-12-05T07:51:46Z</time>
      </trkpt>
      <trkpt lat="45.98324" lon="4.69312">
        <ele>196.25</ele>
        <time>2013-12-05T07:51:59Z</time>
      </trkpt>
      <trkpt lat="45.983" lon="4.69323">
        <ele>197.21</ele>
        <time>2013-12-05T07:52:16Z</time>
      </trkpt>
      <trkpt lat="45.98279" lon="4.69328">
        <ele>196.25</ele>
        <time>2013-12-05T07:52:31Z</time>
      </trkpt>
      <trkpt lat="45.9826" lon="4.69333">
        <ele>196.73</ele>
        <time>2013-12-05T07:52:46Z</time>
      </trkpt>
      <trkpt lat="45.98235" lon="4.69338">
        <ele>197.21</ele>
        <time>2013-12-05T07:53:05Z</time>
      </trkpt>
      <trkpt lat="45.98221" lon="4.6934">
        <ele>197.21</ele>
        <time>2013-12-05T07:53:19Z</time>
      </trkpt>
      <trkpt lat="45.98218" lon="4.69343">
        <ele>197.69</ele>
        <time>2013-12-05T07:53:23Z</time>
      </trkpt>
      <trkpt lat="45.98214" lon="4.69348">
        <ele>196.25</ele>
        <time>2013-12-05T07:53:26Z</time>
      </trkpt>
      <trkpt lat="45.98203" lon="4.6935">
        <ele>197.21</ele>
        <time>2013-12-05T07:53:34Z</time>
      </trkpt>
      <trkpt lat="45.982" lon="4.69352">
        <ele>197.21</ele>
        <time>2013-12-05T07:53:37Z</time>
      </trkpt>
      <trkpt lat="45.98198" lon="4.69351">
        <ele>196.73</ele>
        <time>2013-12-05T07:53:39Z</time>
      </trkpt>
      <trkpt lat="45.98196" lon="4.69347">
        <ele>197.69</ele>
        <time>2013-12-05T07:53:42Z</time>
      </trkpt>
      <trkpt lat="45.98189" lon="4.69349">
        <ele>197.21</ele>
        <time>2013-12-05T07:53:46Z</time>
      </trkpt>
      <trkpt lat="45.98173" lon="4.69356">
        <ele>197.69</ele>
        <time>2013-12-05T07:54:00Z</time>
      </trkpt>
      <trkpt lat="45.98166" lon="4.69358">
        <ele>197.69</ele>
        <time>2013-12-05T07:54:06Z</time>
      </trkpt>
      <trkpt lat="45.98153" lon="4.69361">
        <ele>197.21</ele>
        <time>2013-12-05T07:54:17Z</time>
      </trkpt>
      <trkpt lat="45.98134" lon="4.6937">
        <ele>197.69</ele>
        <time>2013-12-05T07:54:32Z</time>
      </trkpt>
      <trkpt lat="45.98117" lon="4.69375">
        <ele>197.69</ele>
        <time>2013-12-05T07:54:48Z</time>
      </trkpt>
      <trkpt lat="45.98118" lon="4.69378">
        <ele>196.73</ele>
        <time>2013-12-05T07:54:59Z</time>
      </trkpt>
      <trkpt lat="45.98117" lon="4.69379">
        <ele>196.73</ele>
        <time>2013-12-05T07:55:03Z</time>
      </trkpt>
      <trkpt lat="45.98113" lon="4.69383">
        <ele>197.21</ele>
        <time>2013-12-05T07:55:06Z</time>
      </trkpt>
      <trkpt lat="45.98107" lon="4.69384">
        <ele>197.21</ele>
        <time>2013-12-05T07:55:10Z</time>
      </trkpt>
      <trkpt lat="45.9809" lon="4.69391">
        <ele>197.21</ele>
        <time>2013-12-05T07:55:24Z</time>
      </trkpt>
      <trkpt lat="45.98085" lon="4.69395">
        <ele>196.73</ele>
        <time>2013-12-05T07:55:28Z</time>
      </trkpt>
      <trkpt lat="45.98074" lon="4.69398">
        <ele>197.21</ele>
        <time>2013-12-05T07:55:37Z</time>
      </trkpt>
      <trkpt lat="45.98063" lon="4.69399">
        <ele>197.69</ele>
        <time>2013-12-05T07:55:45Z</time>
      </trkpt>
      <trkpt lat="45.98038" lon="4.69399">
        <ele>197.69</ele>
        <time>2013-12-05T07:56:04Z</time>
      </trkpt>
      <trkpt lat="45.98015" lon="4.69401">
        <ele>198.17</ele>
        <time>2013-12-05T07:56:22Z</time>
      </trkpt>
      <trkpt lat="45.97993" lon="4.69403">
        <ele>198.65</ele>
        <time>2013-12-05T07:56:39Z</time>
      </trkpt>
      <trkpt lat="45.97969" lon="4.69407">
        <ele>199.13</ele>
        <time>2013-12-05T07:56:57Z</time>
      </trkpt>
      <trkpt lat="45.9795" lon="4.6941">
        <ele>201.05</ele>
        <time>2013-12-05T07:57:12Z</time>
      </trkpt>
      <trkpt lat="45.9794" lon="4.69416">
        <ele>202.01</ele>
        <time>2013-12-05T07:57:21Z</time>
      </trkpt>
      <trkpt lat="45.97931" lon="4.69404">
        <ele>202.01</ele>
        <time>2013-12-05T07:57:31Z</time>
      </trkpt>
      <trkpt lat="45.97931" lon="4.69398">
        <ele>202.49</ele>
        <time>2013-12-05T07:57:46Z</time>
      </trkpt>
      <trkpt lat="45.97932" lon="4.69403">
        <ele>202.01</ele>
        <time>2013-12-05T07:58:02Z</time>
      </trkpt>
      <trkpt lat="45.97932" lon="4.69405">
        <ele>202.01</ele>
        <time>2013-12-05T07:58:04Z</time>
      </trkpt>
      <trkpt lat="45.97938" lon="4.69419">
        <ele>201.05</ele>
        <time>2013-12-05T07:58:18Z</time>
      </trkpt>
      <trkpt lat="45.97938" lon="4.6942">
        <ele>201.05</ele>
        <time>2013-12-05T07:58:19Z</time>
      </trkpt>
      <trkpt lat="45.97939" lon="4.69452">
        <ele>200.57</ele>
        <time>2013-12-05T07:58:36Z</time>
      </trkpt>
      <trkpt lat="45.97944" lon="4.6948">
        <ele>200.57</ele>
        <time>2013-12-05T07:58:52Z</time>
      </trkpt>
      <trkpt lat="45.97949" lon="4.69511">
        <ele>201.05</ele>
        <time>2013-12-05T07:59:10Z</time>
      </trkpt>
      <trkpt lat="45.97951" lon="4.69539">
        <ele>200.57</ele>
        <time>2013-12-05T07:59:26Z</time>
      </trkpt>
      <trkpt lat="45.97955" lon="4.6957">
        <ele>200.57</ele>
        <time>2013-12-05T07:59:44Z</time>
      </trkpt>
      <trkpt lat="45.97958" lon="4.69603">
        <ele>200.57</ele>
        <time>2013-12-05T08:00:02Z</time>
      </trkpt>
      <trkpt lat="45.9796" lon="4.69632">
        <ele>201.53</ele>
        <time>2013-12-05T08:00:18Z</time>
      </trkpt>
      <trkpt lat="45.97963" lon="4.69659">
        <ele>202.49</ele>
        <time>2013-12-05T08:00:34Z</time>
      </trkpt>
      <trkpt lat="45.97965" lon="4.69688">
        <ele>203.46</ele>
        <time>2013-12-05T08:00:50Z</time>
      </trkpt>
      <trkpt lat="45.97968" lon="4.69714">
        <ele>204.42</ele>
        <time>2013-12-05T08:01:05Z</time>
      </trkpt>
      <trkpt lat="45.97968" lon="4.69723">
        <ele>204.9</ele>
        <time>2013-12-05T08:01:10Z</time>
      </trkpt>
      <trkpt lat="45.97968" lon="4.69734">
        <ele>205.38</ele>
        <time>2013-12-05T08:01:17Z</time>
      </trkpt>
      <trkpt lat="45.97974" lon="4.69743">
        <ele>205.38</ele>
        <time>2013-12-05T08:01:24Z</time>
      </trkpt>
      <trkpt lat="45.97975" lon="4.69746">
        <ele>205.86</ele>
        <time>2013-12-05T08:01:26Z</time>
      </trkpt>
      <trkpt lat="45.97978" lon="4.69754">
        <ele>206.34</ele>
        <time>2013-12-05T08:01:31Z</time>
      </trkpt>
      <trkpt lat="45.9798" lon="4.69758">
        <ele>205.86</ele>
        <time>2013-12-05T08:01:33Z</time>
      </trkpt>
      <trkpt lat="45.97992" lon="4.69779">
        <ele>207.78</ele>
        <time>2013-12-05T08:01:48Z</time>
      </trkpt>
      <trkpt lat="45.97999" lon="4.69795">
        <ele>208.26</ele>
        <time>2013-12-05T08:02:01Z</time>
      </trkpt>
      <trkpt lat="45.97995" lon="4.69799">
        <ele>208.74</ele>
        <time>2013-12-05T08:02:04Z</time>
      </trkpt>
      <trkpt lat="45.97974" lon="4.69809">
        <ele>208.74</ele>
        <time>2013-12-05T08:02:22Z</time>
      </trkpt>
      <trkpt lat="45.97969" lon="4.69808">
        <ele>209.22</ele>
        <time>2013-12-05T08:02:27Z</time>
      </trkpt>
      <trkpt lat="45.97966" lon="4.69808">
        <ele>208.74</ele>
        <time>2013-12-05T08:02:31Z</time>
      </trkpt>
      <trkpt lat="45.97949" lon="4.69798">
        <ele>208.74</ele>
        <time>2013-12-05T08:02:46Z</time>
      </trkpt>
      <trkpt lat="45.97928" lon="4.698">
        <ele>208.26</ele>
        <time>2013-12-05T08:03:03Z</time>
      </trkpt>
      <trkpt lat="45.97924" lon="4.69802">
        <ele>208.26</ele>
        <time>2013-12-05T08:03:07Z</time>
      </trkpt>
      <trkpt lat="45.97908" lon="4.69821">
        <ele>209.22</ele>
        <time>2013-12-05T08:03:24Z</time>
      </trkpt>
      <trkpt lat="45.97894" lon="4.69841">
        <ele>210.67</ele>
        <time>2013-12-05T08:03:41Z</time>
      </trkpt>
      <trkpt lat="45.9788" lon="4.69865">
        <ele>211.63</ele>
        <time>2013-12-05T08:03:59Z</time>
      </trkpt>
      <trkpt lat="45.97876" lon="4.69873">
        <ele>212.59</ele>
        <time>2013-12-05T08:04:06Z</time>
      </trkpt>
      <trkpt lat="45.97855" lon="4.6989">
        <ele>214.03</ele>
        <time>2013-12-05T08:04:27Z</time>
      </trkpt>
      <trkpt lat="45.97838" lon="4.69893">
        <ele>214.99</ele>
        <time>2013-12-05T08:04:41Z</time>
      </trkpt>
      <trkpt lat="45.97832" lon="4.69892">
        <ele>214.03</ele>
        <time>2013-12-05T08:04:46Z</time>
      </trkpt>
      <trkpt lat="45.97826" lon="4.69889">
        <ele>214.03</ele>
        <time>2013-12-05T08:04:52Z</time>
      </trkpt>
      <trkpt lat="45.9781" lon="4.69872">
        <ele>213.07</ele>
        <time>2013-12-05T08:05:08Z</time>
      </trkpt>
      <trkpt lat="45.97802" lon="4.69847">
        <ele>213.07</ele>
        <time>2013-12-05T08:05:22Z</time>
      </trkpt>
      <trkpt lat="45.97793" lon="4.6982">
        <ele>212.11</ele>
        <time>2013-12-05T08:05:40Z</time>
      </trkpt>
      <trkpt lat="45.97791" lon="4.69813">
        <ele>210.19</ele>
        <time>2013-12-05T08:05:44Z</time>
      </trkpt>
      <trkpt lat="45.97788" lon="4.69805">
        <ele>212.11</ele>
        <time>2013-12-05T08:05:49Z</time>
      </trkpt>
      <trkpt lat="45.97773" lon="4.69788">
        <ele>212.59</ele>
        <time>2013-12-05T08:06:04Z</time>
      </trkpt>
      <trkpt lat="45.97754" lon="4.69783">
        <ele>213.07</ele>
        <time>2013-12-05T08:06:19Z</time>
      </trkpt>
      <trkpt lat="45.97732" lon="4.69785">
        <ele>214.03</ele>
        <time>2013-12-05T08:06:36Z</time>
      </trkpt>
      <trkpt lat="45.97713" lon="4.69788">
        <ele>214.99</ele>
        <time>2013-12-05T08:06:51Z</time>
      </trkpt>
      <trkpt lat="45.97697" lon="4.69789">
        <ele>215.47</ele>
        <time>2013-12-05T08:07:04Z</time>
      </trkpt>
      <trkpt lat="45.97681" lon="4.69797">
        <ele>215.95</ele>
        <time>2013-12-05T08:07:18Z</time>
      </trkpt>
      <trkpt lat="45.97673" lon="4.69818">
        <ele>216.91</ele>
        <time>2013-12-05T08:07:35Z</time>
      </trkpt>
      <trkpt lat="45.97667" lon="4.69834">
        <ele>216.91</ele>
        <time>2013-12-05T08:07:48Z</time>
      </trkpt>
      <trkpt lat="45.97668" lon="4.69835">
        <ele>217.4</ele>
        <time>2013-12-05T08:08:08Z</time>
      </trkpt>
      <trkpt lat="45.97669" lon="4.69841">
        <ele>217.88</ele>
        <time>2013-12-05T08:08:21Z</time>
      </trkpt>
      <trkpt lat="45.97674" lon="4.69855">
        <ele>217.4</ele>
        <time>2013-12-05T08:08:36Z</time>
      </trkpt>
      <trkpt lat="45.97674" lon="4.69852">
        <ele>216.91</ele>
        <time>2013-12-05T08:09:05Z</time>
      </trkpt>
      <trkpt lat="45.97669" lon="4.69855">
        <ele>216.43</ele>
        <time>2013-12-05T08:09:27Z</time>
      </trkpt>
      <trkpt lat="45.9767" lon="4.69855">
        <ele>214.99</ele>
        <time>2013-12-05T08:09:49Z</time>
      </trkpt>
      <trkpt lat="45.97668" lon="4.69859">
        <ele>216.43</ele>
        <time>2013-12-05T08:10:08Z</time>
      </trkpt>
      <trkpt lat="45.97667" lon="4.69863">
        <ele>217.4</ele>
        <time>2013-12-05T08:10:25Z</time>
      </trkpt>
      <trkpt lat="45.9766" lon="4.69864">
        <ele>218.36</ele>
        <time>2013-12-05T08:10:39Z</time>
      </trkpt>
      <trkpt lat="45.97657" lon="4.69866">
        <ele>218.84</ele>
        <time>2013-12-05T08:10:45Z</time>
      </trkpt>
      <trkpt lat="45.97654" lon="4.69864">
        <ele>218.36</ele>
        <time>2013-12-05T08:11:00Z</time>
      </trkpt>
      <trkpt lat="45.9764" lon="4.69872">
        <ele>217.4</ele>
        <time>2013-12-05T08:11:15Z</time>
      </trkpt>
      <trkpt lat="45.97626" lon="4.69866">
        <ele>219.32</ele>
        <time>2013-12-05T08:11:30Z</time>
      </trkpt>
      <trkpt lat="45.97612" lon="4.69879">
        <ele>220.28</ele>
        <time>2013-12-05T08:11:47Z</time>
      </trkpt>
      <trkpt lat="45.97613" lon="4.69877">
        <ele>220.28</ele>
        <time>2013-12-05T08:12:08Z</time>
      </trkpt>
      <trkpt lat="45.9761" lon="4.69879">
        <ele>220.76</ele>
        <time>2013-12-05T08:12:26Z</time>
      </trkpt>
      <trkpt lat="45.97608" lon="4.69879">
        <ele>220.76</ele>
        <time>2013-12-05T08:12:28Z</time>
      </trkpt>
      <trkpt lat="45.97592" lon="4.6988">
        <ele>223.16</ele>
        <time>2013-12-05T08:12:43Z</time>
      </trkpt>
      <trkpt lat="45.97577" lon="4.69882">
        <ele>224.12</ele>
        <time>2013-12-05T08:12:57Z</time>
      </trkpt>
      <trkpt lat="45.97575" lon="4.69882">
        <ele>225.09</ele>
        <time>2013-12-05T08:12:59Z</time>
      </trkpt>
      <trkpt lat="45.97558" lon="4.69877">
        <ele>226.05</ele>
        <time>2013-12-05T08:13:15Z</time>
      </trkpt>
      <trkpt lat="45.97542" lon="4.69873">
        <ele>227.97</ele>
        <time>2013-12-05T08:13:28Z</time>
      </trkpt>
      <trkpt lat="45.97541" lon="4.69873">
        <ele>228.93</ele>
        <time>2013-12-05T08:13:29Z</time>
      </trkpt>
      <trkpt lat="45.97535" lon="4.69872">
        <ele>228.93</ele>
        <time>2013-12-05T08:13:34Z</time>
      </trkpt>
      <trkpt lat="45.97531" lon="4.69871">
        <ele>229.41</ele>
        <time>2013-12-05T08:13:38Z</time>
      </trkpt>
      <trkpt lat="45.97513" lon="4.69868">
        <ele>232.3</ele>
        <time>2013-12-05T08:13:54Z</time>
      </trkpt>
      <trkpt lat="45.9751" lon="4.69865">
        <ele>232.3</ele>
        <time>2013-12-05T08:13:57Z</time>
      </trkpt>
      <trkpt lat="45.97505" lon="4.69863">
        <ele>232.78</ele>
        <time>2013-12-05T08:14:03Z</time>
      </trkpt>
      <trkpt lat="45.97503" lon="4.69866">
        <ele>232.78</ele>
        <time>2013-12-05T08:14:17Z</time>
      </trkpt>
      <trkpt lat="45.97504" lon="4.69867">
        <ele>233.26</ele>
        <time>2013-12-05T08:14:39Z</time>
      </trkpt>
      <trkpt lat="45.97504" lon="4.69866">
        <ele>233.26</ele>
        <time>2013-12-05T08:15:06Z</time>
      </trkpt>
      <trkpt lat="45.97503" lon="4.69868">
        <ele>232.78</ele>
        <time>2013-12-05T08:15:27Z</time>
      </trkpt>
      <trkpt lat="45.97504" lon="4.69876">
        <ele>233.26</ele>
        <time>2013-12-05T08:15:39Z</time>
      </trkpt>
      <trkpt lat="45.97505" lon="4.69879">
        <ele>232.78</ele>
        <time>2013-12-05T08:15:41Z</time>
      </trkpt>
      <trkpt lat="45.97505" lon="4.69887">
        <ele>233.74</ele>
        <time>2013-12-05T08:15:47Z</time>
      </trkpt>
      <trkpt lat="45.97507" lon="4.69907">
        <ele>233.74</ele>
        <time>2013-12-05T08:16:01Z</time>
      </trkpt>
      <trkpt lat="45.97507" lon="4.69921">
        <ele>233.26</ele>
        <time>2013-12-05T08:16:09Z</time>
      </trkpt>
      <trkpt lat="45.97509" lon="4.69939">
        <ele>233.74</ele>
        <time>2013-12-05T08:16:24Z</time>
      </trkpt>
      <trkpt lat="45.97506" lon="4.69941">
        <ele>233.74</ele>
        <time>2013-12-05T08:16:40Z</time>
      </trkpt>
      <trkpt lat="45.97507" lon="4.69948">
        <ele>233.74</ele>
        <time>2013-12-05T08:16:45Z</time>
      </trkpt>
      <trkpt lat="45.97508" lon="4.69971">
        <ele>234.22</ele>
        <time>2013-12-05T08:16:56Z</time>
      </trkpt>
      <trkpt lat="45.97508" lon="4.69993">
        <ele>234.7</ele>
        <time>2013-12-05T08:17:09Z</time>
      </trkpt>
      <trkpt lat="45.97507" lon="4.70016">
        <ele>234.22</ele>
        <time>2013-12-05T08:17:21Z</time>
      </trkpt>
      <trkpt lat="45.97506" lon="4.70018">
        <ele>234.7</ele>
        <time>2013-12-05T08:17:22Z</time>
      </trkpt>
      <trkpt lat="45.97504" lon="4.70033">
        <ele>234.7</ele>
        <time>2013-12-05T08:17:32Z</time>
      </trkpt>
      <trkpt lat="45.97495" lon="4.70059">
        <ele>235.18</ele>
        <time>2013-12-05T08:17:47Z</time>
      </trkpt>
      <trkpt lat="45.97484" lon="4.70086">
        <ele>236.14</ele>
        <time>2013-12-05T08:18:04Z</time>
      </trkpt>
      <trkpt lat="45.97474" lon="4.70112">
        <ele>237.1</ele>
        <time>2013-12-05T08:18:19Z</time>
      </trkpt>
      <trkpt lat="45.97472" lon="4.70119">
        <ele>237.58</ele>
        <time>2013-12-05T08:18:23Z</time>
      </trkpt>
      <trkpt lat="45.97471" lon="4.70121">
        <ele>237.58</ele>
        <time>2013-12-05T08:18:24Z</time>
      </trkpt>
      <trkpt lat="45.97471" lon="4.70123">
        <ele>237.58</ele>
        <time>2013-12-05T08:18:25Z</time>
      </trkpt>
      <trkpt lat="45.97469" lon="4.70153">
        <ele>238.54</ele>
        <time>2013-12-05T08:18:42Z</time>
      </trkpt>
      <trkpt lat="45.97468" lon="4.70187">
        <ele>239.99</ele>
        <time>2013-12-05T08:18:59Z</time>
      </trkpt>
      <trkpt lat="45.97468" lon="4.70215">
        <ele>239.99</ele>
        <time>2013-12-05T08:19:14Z</time>
      </trkpt>
      <trkpt lat="45.97467" lon="4.7024">
        <ele>240.95</ele>
        <time>2013-12-05T08:19:27Z</time>
      </trkpt>
      <trkpt lat="45.97466" lon="4.70276">
        <ele>241.91</ele>
        <time>2013-12-05T08:19:46Z</time>
      </trkpt>
      <trkpt lat="45.97466" lon="4.70278">
        <ele>242.39</ele>
        <time>2013-12-05T08:19:47Z</time>
      </trkpt>
      <trkpt lat="45.9746" lon="4.70304">
        <ele>242.87</ele>
        <time>2013-12-05T08:20:02Z</time>
      </trkpt>
      <trkpt lat="45.97455" lon="4.70313">
        <ele>243.35</ele>
        <time>2013-12-05T08:20:16Z</time>
      </trkpt>
      <trkpt lat="45.97457" lon="4.70317">
        <ele>242.87</ele>
        <time>2013-12-05T08:20:26Z</time>
      </trkpt>
      <trkpt lat="45.97463" lon="4.70327">
        <ele>242.87</ele>
        <time>2013-12-05T08:20:38Z</time>
      </trkpt>
      <trkpt lat="45.97465" lon="4.70328">
        <ele>242.87</ele>
        <time>2013-12-05T08:20:40Z</time>
      </trkpt>
      <trkpt lat="45.97478" lon="4.70337">
        <ele>241.91</ele>
        <time>2013-12-05T08:20:56Z</time>
      </trkpt>
      <trkpt lat="45.97488" lon="4.70343">
        <ele>241.91</ele>
        <time>2013-12-05T08:21:07Z</time>
      </trkpt>
      <trkpt lat="45.97491" lon="4.70346">
        <ele>241.91</ele>
        <time>2013-12-05T08:21:10Z</time>
      </trkpt>
      <trkpt lat="45.97491" lon="4.70347">
        <ele>241.43</ele>
        <time>2013-12-05T08:21:11Z</time>
      </trkpt>
      <trkpt lat="45.97492" lon="4.70349">
        <ele>241.43</ele>
        <time>2013-12-05T08:21:12Z</time>
      </trkpt>
      <trkpt lat="45.97495" lon="4.70354">
        <ele>241.43</ele>
        <time>2013-12-05T08:21:16Z</time>
      </trkpt>
      <trkpt lat="45.97496" lon="4.70356">
        <ele>241.43</ele>
        <time>2013-12-05T08:21:17Z</time>
      </trkpt>
      <trkpt lat="45.97502" lon="4.70381">
        <ele>240.95</ele>
        <time>2013-12-05T08:21:33Z</time>
      </trkpt>
      <trkpt lat="45.97501" lon="4.70392">
        <ele>239.02</ele>
        <time>2013-12-05T08:21:48Z</time>
      </trkpt>
      <trkpt lat="45.975" lon="4.70396">
        <ele>239.02</ele>
        <time>2013-12-05T08:21:51Z</time>
      </trkpt>
      <trkpt lat="45.97498" lon="4.70407">
        <ele>239.02</ele>
        <time>2013-12-05T08:21:58Z</time>
      </trkpt>
      <trkpt lat="45.97498" lon="4.70408">
        <ele>239.51</ele>
        <time>2013-12-05T08:21:59Z</time>
      </trkpt>
      <trkpt lat="45.97497" lon="4.70411">
        <ele>239.51</ele>
        <time>2013-12-05T08:22:01Z</time>
      </trkpt>
      <trkpt lat="45.97498" lon="4.70418">
        <ele>239.51</ele>
        <time>2013-12-05T08:22:12Z</time>
      </trkpt>
      <trkpt lat="45.975" lon="4.7043">
        <ele>239.02</ele>
        <time>2013-12-05T08:22:20Z</time>
      </trkpt>
      <trkpt lat="45.975" lon="4.70431">
        <ele>239.51</ele>
        <time>2013-12-05T08:22:21Z</time>
      </trkpt>
      <trkpt lat="45.975" lon="4.70434">
        <ele>239.02</ele>
        <time>2013-12-05T08:22:23Z</time>
      </trkpt>
      <trkpt lat="45.97503" lon="4.7046">
        <ele>239.02</ele>
        <time>2013-12-05T08:22:40Z</time>
      </trkpt>
      <trkpt lat="45.97503" lon="4.70483">
        <ele>238.54</ele>
        <time>2013-12-05T08:22:54Z</time>
      </trkpt>
      <trkpt lat="45.97504" lon="4.70505">
        <ele>238.06</ele>
        <time>2013-12-05T08:23:06Z</time>
      </trkpt>
      <trkpt lat="45.97506" lon="4.7053">
        <ele>237.58</ele>
        <time>2013-12-05T08:23:22Z</time>
      </trkpt>
      <trkpt lat="45.97507" lon="4.70567">
        <ele>237.58</ele>
        <time>2013-12-05T08:23:42Z</time>
      </trkpt>
      <trkpt lat="45.97506" lon="4.7057">
        <ele>237.58</ele>
        <time>2013-12-05T08:23:44Z</time>
      </trkpt>
      <trkpt lat="45.97506" lon="4.70572">
        <ele>237.1</ele>
        <time>2013-12-05T08:23:45Z</time>
      </trkpt>
      <trkpt lat="45.97503" lon="4.70578">
        <ele>237.58</ele>
        <time>2013-12-05T08:23:59Z</time>
      </trkpt>
      <trkpt lat="45.97505" lon="4.70588">
        <ele>237.1</ele>
        <time>2013-12-05T08:24:13Z</time>
      </trkpt>
      <trkpt lat="45.97502" lon="4.70603">
        <ele>236.62</ele>
        <time>2013-12-05T08:24:32Z</time>
      </trkpt>
      <trkpt lat="45.97492" lon="4.70622">
        <ele>237.1</ele>
        <time>2013-12-05T08:24:46Z</time>
      </trkpt>
      <trkpt lat="45.97481" lon="4.70644">
        <ele>237.58</ele>
        <time>2013-12-05T08:25:02Z</time>
      </trkpt>
      <trkpt lat="45.97473" lon="4.70665">
        <ele>238.06</ele>
        <time>2013-12-05T08:25:18Z</time>
      </trkpt>
      <trkpt lat="45.97465" lon="4.70689">
        <ele>238.54</ele>
        <time>2013-12-05T08:25:33Z</time>
      </trkpt>
      <trkpt lat="45.97455" lon="4.70711">
        <ele>239.99</ele>
        <time>2013-12-05T08:25:47Z</time>
      </trkpt>
      <trkpt lat="45.9745" lon="4.70716">
        <ele>240.47</ele>
        <time>2013-12-05T08:26:02Z</time>
      </trkpt>
      <trkpt lat="45.97448" lon="4.70711">
        <ele>240.47</ele>
        <time>2013-12-05T08:26:20Z</time>
      </trkpt>
      <trkpt lat="45.9744" lon="4.70692">
        <ele>239.99</ele>
        <time>2013-12-05T08:26:37Z</time>
      </trkpt>
      <trkpt lat="45.97431" lon="4.70667">
        <ele>241.91</ele>
        <time>2013-12-05T08:26:55Z</time>
      </trkpt>
      <trkpt lat="45.97428" lon="4.70663">
        <ele>242.87</ele>
        <time>2013-12-05T08:27:11Z</time>
      </trkpt>
      <trkpt lat="45.97427" lon="4.70662">
        <ele>239.51</ele>
        <time>2013-12-05T08:27:14Z</time>
      </trkpt>
      <trkpt lat="45.97428" lon="4.70663">
        <ele>237.58</ele>
        <time>2013-12-05T08:27:30Z</time>
      </trkpt>
      <trkpt lat="45.97427" lon="4.70659">
        <ele>238.54</ele>
        <time>2013-12-05T08:27:32Z</time>
      </trkpt>
      <trkpt lat="45.97426" lon="4.70659">
        <ele>237.58</ele>
        <time>2013-12-05T08:27:36Z</time>
      </trkpt>
      <trkpt lat="45.97412" lon="4.70653">
        <ele>238.54</ele>
        <time>2013-12-05T08:27:46Z</time>
      </trkpt>
      <trkpt lat="45.97393" lon="4.70655">
        <ele>239.51</ele>
        <time>2013-12-05T08:28:01Z</time>
      </trkpt>
      <trkpt lat="45.97381" lon="4.70658">
        <ele>240.47</ele>
        <time>2013-12-05T08:28:11Z</time>
      </trkpt>
      <trkpt lat="45.9738" lon="4.70654">
        <ele>240.47</ele>
        <time>2013-12-05T08:28:14Z</time>
      </trkpt>
      <trkpt lat="45.9738" lon="4.7064">
        <ele>241.91</ele>
        <time>2013-12-05T08:28:22Z</time>
      </trkpt>
      <trkpt lat="45.97379" lon="4.70633">
        <ele>241.43</ele>
        <time>2013-12-05T08:28:26Z</time>
      </trkpt>
      <trkpt lat="45.97379" lon="4.70628">
        <ele>241.91</ele>
        <time>2013-12-05T08:28:29Z</time>
      </trkpt>
      <trkpt lat="45.97376" lon="4.70624">
        <ele>242.87</ele>
        <time>2013-12-05T08:28:32Z</time>
      </trkpt>
      <trkpt lat="45.97374" lon="4.70607">
        <ele>242.39</ele>
        <time>2013-12-05T08:28:41Z</time>
      </trkpt>
      <trkpt lat="45.97373" lon="4.70592">
        <ele>242.87</ele>
        <time>2013-12-05T08:28:49Z</time>
      </trkpt>
      <trkpt lat="45.97372" lon="4.70567">
        <ele>243.35</ele>
        <time>2013-12-05T08:29:05Z</time>
      </trkpt>
      <trkpt lat="45.97372" lon="4.70563">
        <ele>243.83</ele>
        <time>2013-12-05T08:29:08Z</time>
      </trkpt>
      <trkpt lat="45.97365" lon="4.70559">
        <ele>243.83</ele>
        <time>2013-12-05T08:29:14Z</time>
      </trkpt>
      <trkpt lat="45.9736" lon="4.70558">
        <ele>244.79</ele>
        <time>2013-12-05T08:29:19Z</time>
      </trkpt>
      <trkpt lat="45.97348" lon="4.70536">
        <ele>246.72</ele>
        <time>2013-12-05T08:29:36Z</time>
      </trkpt>
      <trkpt lat="45.97345" lon="4.70524">
        <ele>246.72</ele>
        <time>2013-12-05T08:29:47Z</time>
      </trkpt>
      <trkpt lat="45.97328" lon="4.70519">
        <ele>249.6</ele>
        <time>2013-12-05T08:30:02Z</time>
      </trkpt>
      <trkpt lat="45.97316" lon="4.70514">
        <ele>250.08</ele>
        <time>2013-12-05T08:30:16Z</time>
      </trkpt>
      <trkpt lat="45.97311" lon="4.70514">
        <ele>250.08</ele>
        <time>2013-12-05T08:30:24Z</time>
      </trkpt>
      <trkpt lat="45.97298" lon="4.70512">
        <ele>252.48</ele>
        <time>2013-12-05T08:30:38Z</time>
      </trkpt>
      <trkpt lat="45.97295" lon="4.70518">
        <ele>252.48</ele>
        <time>2013-12-05T08:30:43Z</time>
      </trkpt>
      <trkpt lat="45.97289" lon="4.70529">
        <ele>252.48</ele>
        <time>2013-12-05T08:30:58Z</time>
      </trkpt>
      <trkpt lat="45.9728" lon="4.7054">
        <ele>253.44</ele>
        <time>2013-12-05T08:31:10Z</time>
      </trkpt>
      <trkpt lat="45.97264" lon="4.70553">
        <ele>255.37</ele>
        <time>2013-12-05T08:31:26Z</time>
      </trkpt>
      <trkpt lat="45.97257" lon="4.70556">
        <ele>256.81</ele>
        <time>2013-12-05T08:31:39Z</time>
      </trkpt>
      <trkpt lat="45.97254" lon="4.70556">
        <ele>257.77</ele>
        <time>2013-12-05T08:31:42Z</time>
      </trkpt>
      <trkpt lat="45.97244" lon="4.70555">
        <ele>258.25</ele>
        <time>2013-12-05T08:31:52Z</time>
      </trkpt>
      <trkpt lat="45.97241" lon="4.70552">
        <ele>258.73</ele>
        <time>2013-12-05T08:31:56Z</time>
      </trkpt>
      <trkpt lat="45.9723" lon="4.70539">
        <ele>259.21</ele>
        <time>2013-12-05T08:32:09Z</time>
      </trkpt>
      <trkpt lat="45.97222" lon="4.70524">
        <ele>261.14</ele>
        <time>2013-12-05T08:32:22Z</time>
      </trkpt>
      <trkpt lat="45.97209" lon="4.70518">
        <ele>263.06</ele>
        <time>2013-12-05T08:32:37Z</time>
      </trkpt>
      <trkpt lat="45.97191" lon="4.70511">
        <ele>264.5</ele>
        <time>2013-12-05T08:32:54Z</time>
      </trkpt>
      <trkpt lat="45.97174" lon="4.70504">
        <ele>267.86</ele>
        <time>2013-12-05T08:33:10Z</time>
      </trkpt>
      <trkpt lat="45.97157" lon="4.70495">
        <ele>269.79</ele>
        <time>2013-12-05T08:33:25Z</time>
      </trkpt>
      <trkpt lat="45.97139" lon="4.70485">
        <ele>271.71</ele>
        <time>2013-12-05T08:33:40Z</time>
      </trkpt>
      <trkpt lat="45.97122" lon="4.70474">
        <ele>274.11</ele>
        <time>2013-12-05T08:33:55Z</time>
      </trkpt>
      <trkpt lat="45.97113" lon="4.7047">
        <ele>276.04</ele>
        <time>2013-12-05T08:34:04Z</time>
      </trkpt>
      <trkpt lat="45.97097" lon="4.70462">
        <ele>277.48</ele>
        <time>2013-12-05T08:34:19Z</time>
      </trkpt>
      <trkpt lat="45.97085" lon="4.70453">
        <ele>278.44</ele>
        <time>2013-12-05T08:34:32Z</time>
      </trkpt>
      <trkpt lat="45.97071" lon="4.70445">
        <ele>280.36</ele>
        <time>2013-12-05T08:34:45Z</time>
      </trkpt>
      <trkpt lat="45.97068" lon="4.70443">
        <ele>280.36</ele>
        <time>2013-12-05T08:34:48Z</time>
      </trkpt>
      <trkpt lat="45.97055" lon="4.70431">
        <ele>282.77</ele>
        <time>2013-12-05T08:35:03Z</time>
      </trkpt>
      <trkpt lat="45.97038" lon="4.7042">
        <ele>284.69</ele>
        <time>2013-12-05T08:35:19Z</time>
      </trkpt>
      <trkpt lat="45.97026" lon="4.70409">
        <ele>286.61</ele>
        <time>2013-12-05T08:35:35Z</time>
      </trkpt>
      <trkpt lat="45.97024" lon="4.70406">
        <ele>286.13</ele>
        <time>2013-12-05T08:35:50Z</time>
      </trkpt>
      <trkpt lat="45.97022" lon="4.70405">
        <ele>286.61</ele>
        <time>2013-12-05T08:36:21Z</time>
      </trkpt>
      <trkpt lat="45.97021" lon="4.70407">
        <ele>286.61</ele>
        <time>2013-12-05T08:36:43Z</time>
      </trkpt>
      <trkpt lat="45.97025" lon="4.70406">
        <ele>286.61</ele>
        <time>2013-12-05T08:36:57Z</time>
      </trkpt>
      <trkpt lat="45.97027" lon="4.70405">
        <ele>286.61</ele>
        <time>2013-12-05T08:37:23Z</time>
      </trkpt>
      <trkpt lat="45.97027" lon="4.70406">
        <ele>286.61</ele>
        <time>2013-12-05T08:37:49Z</time>
      </trkpt>
      <trkpt lat="45.97029" lon="4.7041">
        <ele>286.61</ele>
        <time>2013-12-05T08:38:10Z</time>
      </trkpt>
      <trkpt lat="45.97027" lon="4.70409">
        <ele>287.09</ele>
        <time>2013-12-05T08:38:41Z</time>
      </trkpt>
      <trkpt lat="45.97027" lon="4.70409">
        <ele>287.09</ele>
        <time>2013-12-05T08:39:06Z</time>
      </trkpt>
      <trkpt lat="45.97025" lon="4.70408">
        <ele>287.57</ele>
        <time>2013-12-05T08:39:32Z</time>
      </trkpt>
      <trkpt lat="45.97024" lon="4.7041">
        <ele>287.09</ele>
        <time>2013-12-05T08:40:00Z</time>
      </trkpt>
      <trkpt lat="45.97018" lon="4.70403">
        <ele>287.09</ele>
        <time>2013-12-05T08:40:17Z</time>
      </trkpt>
      <trkpt lat="45.97015" lon="4.70399">
        <ele>287.57</ele>
        <time>2013-12-05T08:40:22Z</time>
      </trkpt>
      <trkpt lat="45.97013" lon="4.70397">
        <ele>288.05</ele>
        <time>2013-12-05T08:40:24Z</time>
      </trkpt>
      <trkpt lat="45.96996" lon="4.70381">
        <ele>289.97</ele>
        <time>2013-12-05T08:40:42Z</time>
      </trkpt>
      <trkpt lat="45.96989" lon="4.70378">
        <ele>290.46</ele>
        <time>2013-12-05T08:40:49Z</time>
      </trkpt>
      <trkpt lat="45.96971" lon="4.70366">
        <ele>292.86</ele>
        <time>2013-12-05T08:41:05Z</time>
      </trkpt>
      <trkpt lat="45.96952" lon="4.70361">
        <ele>295.26</ele>
        <time>2013-12-05T08:41:20Z</time>
      </trkpt>
      <trkpt lat="45.96938" lon="4.70355">
        <ele>296.22</ele>
        <time>2013-12-05T08:41:34Z</time>
      </trkpt>
      <trkpt lat="45.96921" lon="4.70351">
        <ele>298.15</ele>
        <time>2013-12-05T08:41:49Z</time>
      </trkpt>
      <trkpt lat="45.96907" lon="4.7035">
        <ele>300.07</ele>
        <time>2013-12-05T08:42:04Z</time>
      </trkpt>
      <trkpt lat="45.96893" lon="4.70351">
        <ele>302.47</ele>
        <time>2013-12-05T08:42:18Z</time>
      </trkpt>
      <trkpt lat="45.96883" lon="4.70347">
        <ele>302.95</ele>
        <time>2013-12-05T08:42:31Z</time>
      </trkpt>
      <trkpt lat="45.96867" lon="4.7034">
        <ele>304.88</ele>
        <time>2013-12-05T08:42:47Z</time>
      </trkpt>
      <trkpt lat="45.96863" lon="4.70338">
        <ele>305.36</ele>
        <time>2013-12-05T08:42:51Z</time>
      </trkpt>
      <trkpt lat="45.96847" lon="4.70331">
        <ele>307.28</ele>
        <time>2013-12-05T08:43:07Z</time>
      </trkpt>
      <trkpt lat="45.9683" lon="4.70323">
        <ele>308.24</ele>
        <time>2013-12-05T08:43:23Z</time>
      </trkpt>
      <trkpt lat="45.9682" lon="4.70319">
        <ele>308.72</ele>
        <time>2013-12-05T08:43:32Z</time>
      </trkpt>
      <trkpt lat="45.96802" lon="4.7031">
        <ele>310.64</ele>
        <time>2013-12-05T08:43:49Z</time>
      </trkpt>
      <trkpt lat="45.96787" lon="4.70302">
        <ele>311.12</ele>
        <time>2013-12-05T08:44:03Z</time>
      </trkpt>
      <trkpt lat="45.96774" lon="4.70294">
        <ele>312.09</ele>
        <time>2013-12-05T08:44:17Z</time>
      </trkpt>
      <trkpt lat="45.9676" lon="4.7029">
        <ele>313.05</ele>
        <time>2013-12-05T08:44:30Z</time>
      </trkpt>
      <trkpt lat="45.96754" lon="4.70286">
        <ele>313.53</ele>
        <time>2013-12-05T08:44:44Z</time>
      </trkpt>
      <trkpt lat="45.96751" lon="4.70281">
        <ele>313.05</ele>
        <time>2013-12-05T08:44:50Z</time>
      </trkpt>
      <trkpt lat="45.96751" lon="4.70278">
        <ele>313.05</ele>
        <time>2013-12-05T08:44:57Z</time>
      </trkpt>
      <trkpt lat="45.96753" lon="4.70284">
        <ele>313.05</ele>
        <time>2013-12-05T08:45:01Z</time>
      </trkpt>
      <trkpt lat="45.96754" lon="4.70291">
        <ele>313.05</ele>
        <time>2013-12-05T08:45:05Z</time>
      </trkpt>
      <trkpt lat="45.96748" lon="4.70306">
        <ele>314.01</ele>
        <time>2013-12-05T08:45:18Z</time>
      </trkpt>
      <trkpt lat="45.96734" lon="4.70314">
        <ele>314.97</ele>
        <time>2013-12-05T08:45:32Z</time>
      </trkpt>
      <trkpt lat="45.96731" lon="4.70313">
        <ele>314.49</ele>
        <time>2013-12-05T08:45:35Z</time>
      </trkpt>
      <trkpt lat="45.96723" lon="4.70308">
        <ele>315.45</ele>
        <time>2013-12-05T08:45:43Z</time>
      </trkpt>
      <trkpt lat="45.9671" lon="4.70298">
        <ele>316.41</ele>
        <time>2013-12-05T08:45:57Z</time>
      </trkpt>
      <trkpt lat="45.96698" lon="4.70288">
        <ele>317.37</ele>
        <time>2013-12-05T08:46:10Z</time>
      </trkpt>
      <trkpt lat="45.96692" lon="4.70284">
        <ele>317.37</ele>
        <time>2013-12-05T08:46:16Z</time>
      </trkpt>
      <trkpt lat="45.96687" lon="4.7028">
        <ele>317.85</ele>
        <time>2013-12-05T08:46:22Z</time>
      </trkpt>
      <trkpt lat="45.96681" lon="4.70276">
        <ele>319.3</ele>
        <time>2013-12-05T08:46:28Z</time>
      </trkpt>
      <trkpt lat="45.96679" lon="4.70274">
        <ele>318.81</ele>
        <time>2013-12-05T08:46:30Z</time>
      </trkpt>
      <trkpt lat="45.96665" lon="4.70263">
        <ele>320.74</ele>
        <time>2013-12-05T08:46:45Z</time>
      </trkpt>
      <trkpt lat="45.96653" lon="4.70256">
        <ele>322.66</ele>
        <time>2013-12-05T08:46:58Z</time>
      </trkpt>
      <trkpt lat="45.96643" lon="4.7025">
        <ele>323.14</ele>
        <time>2013-12-05T08:47:09Z</time>
      </trkpt>
      <trkpt lat="45.9664" lon="4.7025">
        <ele>324.1</ele>
        <time>2013-12-05T08:47:12Z</time>
      </trkpt>
      <trkpt lat="45.96626" lon="4.70247">
        <ele>324.58</ele>
        <time>2013-12-05T08:47:26Z</time>
      </trkpt>
      <trkpt lat="45.96617" lon="4.70245">
        <ele>326.5</ele>
        <time>2013-12-05T08:47:35Z</time>
      </trkpt>
      <trkpt lat="45.96615" lon="4.70244">
        <ele>326.99</ele>
        <time>2013-12-05T08:47:37Z</time>
      </trkpt>
      <trkpt lat="45.96613" lon="4.70244">
        <ele>327.47</ele>
        <time>2013-12-05T08:47:40Z</time>
      </trkpt>
      <trkpt lat="45.96611" lon="4.70243">
        <ele>327.47</ele>
        <time>2013-12-05T08:47:42Z</time>
      </trkpt>
      <trkpt lat="45.96598" lon="4.7024">
        <ele>329.39</ele>
        <time>2013-12-05T08:47:56Z</time>
      </trkpt>
      <trkpt lat="45.96584" lon="4.70238">
        <ele>331.31</ele>
        <time>2013-12-05T08:48:10Z</time>
      </trkpt>
      <trkpt lat="45.96571" lon="4.70237">
        <ele>333.71</ele>
        <time>2013-12-05T08:48:23Z</time>
      </trkpt>
      <trkpt lat="45.96561" lon="4.70236">
        <ele>335.16</ele>
        <time>2013-12-05T08:48:35Z</time>
      </trkpt>
      <trkpt lat="45.9655" lon="4.70234">
        <ele>337.08</ele>
        <time>2013-12-05T08:48:49Z</time>
      </trkpt>
      <trkpt lat="45.96548" lon="4.70233">
        <ele>337.08</ele>
        <time>2013-12-05T08:48:51Z</time>
      </trkpt>
      <trkpt lat="45.96538" lon="4.70232">
        <ele>339.96</ele>
        <time>2013-12-05T08:49:03Z</time>
      </trkpt>
      <trkpt lat="45.96529" lon="4.70231">
        <ele>340.92</ele>
        <time>2013-12-05T08:49:16Z</time>
      </trkpt>
      <trkpt lat="45.96518" lon="4.70235">
        <ele>342.37</ele>
        <time>2013-12-05T08:49:30Z</time>
      </trkpt>
      <trkpt lat="45.96516" lon="4.70237">
        <ele>342.85</ele>
        <time>2013-12-05T08:49:33Z</time>
      </trkpt>
      <trkpt lat="45.96508" lon="4.70253">
        <ele>343.33</ele>
        <time>2013-12-05T08:49:47Z</time>
      </trkpt>
      <trkpt lat="45.96507" lon="4.70255">
        <ele>343.81</ele>
        <time>2013-12-05T08:49:49Z</time>
      </trkpt>
      <trkpt lat="45.96504" lon="4.70261">
        <ele>343.33</ele>
        <time>2013-12-05T08:49:55Z</time>
      </trkpt>
      <trkpt lat="45.96498" lon="4.70259">
        <ele>344.29</ele>
        <time>2013-12-05T08:50:00Z</time>
      </trkpt>
      <trkpt lat="45.96495" lon="4.70257">
        <ele>344.77</ele>
        <time>2013-12-05T08:50:02Z</time>
      </trkpt>
      <trkpt lat="45.96492" lon="4.7025">
        <ele>345.25</ele>
        <time>2013-12-05T08:50:07Z</time>
      </trkpt>
      <trkpt lat="45.96489" lon="4.70243">
        <ele>346.21</ele>
        <time>2013-12-05T08:50:12Z</time>
      </trkpt>
      <trkpt lat="45.96488" lon="4.7024">
        <ele>345.25</ele>
        <time>2013-12-05T08:50:14Z</time>
      </trkpt>
      <trkpt lat="45.96478" lon="4.70221">
        <ele>348.13</ele>
        <time>2013-12-05T08:50:31Z</time>
      </trkpt>
      <trkpt lat="45.96471" lon="4.70208">
        <ele>351.02</ele>
        <time>2013-12-05T08:50:44Z</time>
      </trkpt>
      <trkpt lat="45.96464" lon="4.70197">
        <ele>352.46</ele>
        <time>2013-12-05T08:50:57Z</time>
      </trkpt>
      <trkpt lat="45.96463" lon="4.70188">
        <ele>353.42</ele>
        <time>2013-12-05T08:51:08Z</time>
      </trkpt>
      <trkpt lat="45.96464" lon="4.70184">
        <ele>352.46</ele>
        <time>2013-12-05T08:51:20Z</time>
      </trkpt>
      <trkpt lat="45.96465" lon="4.70184">
        <ele>353.9</ele>
        <time>2013-12-05T08:51:37Z</time>
      </trkpt>
      <trkpt lat="45.96467" lon="4.70184">
        <ele>352.46</ele>
        <time>2013-12-05T08:51:47Z</time>
      </trkpt>
      <trkpt lat="45.96469" lon="4.70187">
        <ele>351.98</ele>
        <time>2013-12-05T08:52:16Z</time>
      </trkpt>
      <trkpt lat="45.96474" lon="4.70185">
        <ele>352.46</ele>
        <time>2013-12-05T08:52:52Z</time>
      </trkpt>
      <trkpt lat="45.9647" lon="4.70187">
        <ele>351.98</ele>
        <time>2013-12-05T08:53:26Z</time>
      </trkpt>
      <trkpt lat="45.96467" lon="4.70184">
        <ele>352.46</ele>
        <time>2013-12-05T08:53:58Z</time>
      </trkpt>
      <trkpt lat="45.9647" lon="4.70185">
        <ele>352.46</ele>
        <time>2013-12-05T08:54:41Z</time>
      </trkpt>
      <trkpt lat="45.96469" lon="4.70184">
        <ele>351.98</ele>
        <time>2013-12-05T08:55:13Z</time>
      </trkpt>
      <trkpt lat="45.96465" lon="4.70184">
        <ele>352.46</ele>
        <time>2013-12-05T08:56:00Z</time>
      </trkpt>
      <trkpt lat="45.96465" lon="4.70187">
        <ele>352.94</ele>
        <time>2013-12-05T08:56:38Z</time>
      </trkpt>
      <trkpt lat="45.96466" lon="4.70182">
        <ele>352.94</ele>
        <time>2013-12-05T08:57:21Z</time>
      </trkpt>
      <trkpt lat="45.96466" lon="4.70182">
        <ele>352.94</ele>
        <time>2013-12-05T08:58:02Z</time>
      </trkpt>
      <trkpt lat="45.96466" lon="4.70183">
        <ele>354.38</ele>
        <time>2013-12-05T08:58:29Z</time>
      </trkpt>
      <trkpt lat="45.96464" lon="4.70182">
        <ele>354.86</ele>
        <time>2013-12-05T08:58:43Z</time>
      </trkpt>
      <trkpt lat="45.96463" lon="4.70177">
        <ele>354.38</ele>
        <time>2013-12-05T08:58:56Z</time>
      </trkpt>
      <trkpt lat="45.96463" lon="4.70174">
        <ele>355.34</ele>
        <time>2013-12-05T08:59:10Z</time>
      </trkpt>
      <trkpt lat="45.96464" lon="4.70173">
        <ele>355.34</ele>
        <time>2013-12-05T08:59:24Z</time>
      </trkpt>
      <trkpt lat="45.96465" lon="4.70174">
        <ele>354.86</ele>
        <time>2013-12-05T08:59:41Z</time>
      </trkpt>
      <trkpt lat="45.96465" lon="4.70174">
        <ele>354.86</ele>
        <time>2013-12-05T08:59:54Z</time>
      </trkpt>
      <trkpt lat="45.96464" lon="4.70175">
        <ele>355.34</ele>
        <time>2013-12-05T09:00:09Z</time>
      </trkpt>
      <trkpt lat="45.96465" lon="4.70174">
        <ele>355.83</ele>
        <time>2013-12-05T09:00:31Z</time>
      </trkpt>
      <trkpt lat="45.96464" lon="4.70173">
        <ele>355.34</ele>
        <time>2013-12-05T09:00:49Z</time>
      </trkpt>
      <trkpt lat="45.96463" lon="4.70173">
        <ele>355.34</ele>
        <time>2013-12-05T09:01:07Z</time>
      </trkpt>
      <trkpt lat="45.96463" lon="4.70173">
        <ele>354.86</ele>
        <time>2013-12-05T09:01:26Z</time>
      </trkpt>
      <trkpt lat="45.96464" lon="4.70171">
        <ele>354.86</ele>
        <time>2013-12-05T09:01:45Z</time>
      </trkpt>
      <trkpt lat="45.96464" lon="4.70171">
        <ele>355.34</ele>
        <time>2013-12-05T09:02:07Z</time>
      </trkpt>
      <trkpt lat="45.96465" lon="4.70172">
        <ele>354.86</ele>
        <time>2013-12-05T09:02:21Z</time>
      </trkpt>
      <trkpt lat="45.96464" lon="4.70172">
        <ele>355.34</ele>
        <time>2013-12-05T09:02:33Z</time>
      </trkpt>
      <trkpt lat="45.96466" lon="4.70173">
        <ele>355.34</ele>
        <time>2013-12-05T09:02:57Z</time>
      </trkpt>
      <trkpt lat="45.96466" lon="4.70173">
        <ele>355.83</ele>
        <time>2013-12-05T09:03:02Z</time>
      </trkpt>
      <trkpt lat="45.96466" lon="4.70173">
        <ele>354.38</ele>
        <time>2013-12-05T09:03:04Z</time>
      </trkpt>
      <trkpt lat="45.96466" lon="4.70175">
        <ele>354.86</ele>
        <time>2013-12-05T09:03:22Z</time>
      </trkpt>
      <trkpt lat="45.96465" lon="4.70176">
        <ele>355.34</ele>
        <time>2013-12-05T09:03:43Z</time>
      </trkpt>
      <trkpt lat="45.96466" lon="4.70176">
        <ele>354.38</ele>
        <time>2013-12-05T09:04:00Z</time>
      </trkpt>
      <trkpt lat="45.96466" lon="4.70176">
        <ele>355.34</ele>
        <time>2013-12-05T09:04:24Z</time>
      </trkpt>
      <trkpt lat="45.96466" lon="4.70176">
        <ele>355.34</ele>
        <time>2013-12-05T09:04:53Z</time>
      </trkpt>
      <trkpt lat="45.96467" lon="4.70176">
        <ele>356.79</ele>
        <time>2013-12-05T09:04:55Z</time>
      </trkpt>
      <trkpt lat="45.96463" lon="4.70176">
        <ele>355.83</ele>
        <time>2013-12-05T09:05:08Z</time>
      </trkpt>
      <trkpt lat="45.96463" lon="4.70174">
        <ele>356.31</ele>
        <time>2013-12-05T09:05:33Z</time>
      </trkpt>
      <trkpt lat="45.96464" lon="4.70172">
        <ele>356.31</ele>
        <time>2013-12-05T09:05:58Z</time>
      </trkpt>
      <trkpt lat="45.96464" lon="4.70175">
        <ele>355.83</ele>
        <time>2013-12-05T09:06:20Z</time>
      </trkpt>
      <trkpt lat="45.96464" lon="4.70176">
        <ele>356.31</ele>
        <time>2013-12-05T09:06:52Z</time>
      </trkpt>
      <trkpt lat="45.96464" lon="4.70166">
        <ele>356.79</ele>
        <time>2013-12-05T09:07:11Z</time>
      </trkpt>
      <trkpt lat="45.96464" lon="4.70166">
        <ele>356.31</ele>
        <time>2013-12-05T09:07:22Z</time>
      </trkpt>
      <trkpt lat="45.96459" lon="4.70137">
        <ele>356.79</ele>
        <time>2013-12-05T09:07:42Z</time>
      </trkpt>
      <trkpt lat="45.96455" lon="4.70127">
        <ele>356.31</ele>
        <time>2013-12-05T09:07:50Z</time>
      </trkpt>
      <trkpt lat="45.9645" lon="4.70117">
        <ele>356.31</ele>
        <time>2013-12-05T09:08:06Z</time>
      </trkpt>
      <trkpt lat="45.96444" lon="4.70107">
        <ele>356.31</ele>
        <time>2013-12-05T09:08:23Z</time>
      </trkpt>
      <trkpt lat="45.96444" lon="4.701">
        <ele>356.31</ele>
        <time>2013-12-05T09:08:27Z</time>
      </trkpt>
      <trkpt lat="45.96444" lon="4.70075">
        <ele>355.83</ele>
        <time>2013-12-05T09:08:43Z</time>
      </trkpt>
      <trkpt lat="45.96443" lon="4.7005">
        <ele>355.83</ele>
        <time>2013-12-05T09:08:59Z</time>
      </trkpt>
      <trkpt lat="45.96439" lon="4.70031">
        <ele>355.34</ele>
        <time>2013-12-05T09:09:12Z</time>
      </trkpt>
      <trkpt lat="45.96431" lon="4.70018">
        <ele>354.38</ele>
        <time>2013-12-05T09:09:24Z</time>
      </trkpt>
      <trkpt lat="45.96419" lon="4.70009">
        <ele>354.38</ele>
        <time>2013-12-05T09:09:35Z</time>
      </trkpt>
      <trkpt lat="45.96411" lon="4.70001">
        <ele>354.38</ele>
        <time>2013-12-05T09:09:43Z</time>
      </trkpt>
      <trkpt lat="45.96399" lon="4.69979">
        <ele>352.46</ele>
        <time>2013-12-05T09:10:00Z</time>
      </trkpt>
      <trkpt lat="45.96383" lon="4.69964">
        <ele>351.02</ele>
        <time>2013-12-05T09:10:17Z</time>
      </trkpt>
      <trkpt lat="45.96368" lon="4.69967">
        <ele>350.54</ele>
        <time>2013-12-05T09:10:32Z</time>
      </trkpt>
      <trkpt lat="45.96349" lon="4.69971">
        <ele>350.54</ele>
        <time>2013-12-05T09:10:48Z</time>
      </trkpt>
      <trkpt lat="45.96329" lon="4.69982">
        <ele>349.58</ele>
        <time>2013-12-05T09:11:07Z</time>
      </trkpt>
      <trkpt lat="45.96323" lon="4.69988">
        <ele>349.1</ele>
        <time>2013-12-05T09:11:15Z</time>
      </trkpt>
      <trkpt lat="45.96316" lon="4.70005">
        <ele>349.58</ele>
        <time>2013-12-05T09:11:27Z</time>
      </trkpt>
      <trkpt lat="45.96315" lon="4.70007">
        <ele>349.1</ele>
        <time>2013-12-05T09:11:29Z</time>
      </trkpt>
      <trkpt lat="45.96311" lon="4.70018">
        <ele>350.06</ele>
        <time>2013-12-05T09:11:36Z</time>
      </trkpt>
      <trkpt lat="45.96311" lon="4.70023">
        <ele>349.58</ele>
        <time>2013-12-05T09:11:40Z</time>
      </trkpt>
      <trkpt lat="45.96306" lon="4.70038">
        <ele>349.1</ele>
        <time>2013-12-05T09:11:53Z</time>
      </trkpt>
      <trkpt lat="45.96309" lon="4.70039">
        <ele>349.1</ele>
        <time>2013-12-05T09:12:09Z</time>
      </trkpt>
      <trkpt lat="45.96309" lon="4.70039">
        <ele>349.58</ele>
        <time>2013-12-05T09:12:35Z</time>
      </trkpt>
      <trkpt lat="45.9631" lon="4.70039">
        <ele>349.58</ele>
        <time>2013-12-05T09:12:45Z</time>
      </trkpt>
      <trkpt lat="45.96313" lon="4.70048">
        <ele>349.58</ele>
        <time>2013-12-05T09:12:51Z</time>
      </trkpt>
      <trkpt lat="45.96314" lon="4.70051">
        <ele>350.06</ele>
        <time>2013-12-05T09:12:53Z</time>
      </trkpt>
      <trkpt lat="45.96314" lon="4.70069">
        <ele>350.06</ele>
        <time>2013-12-05T09:13:07Z</time>
      </trkpt>
      <trkpt lat="45.96313" lon="4.70075">
        <ele>350.06</ele>
        <time>2013-12-05T09:13:12Z</time>
      </trkpt>
      <trkpt lat="45.96311" lon="4.70102">
        <ele>350.06</ele>
        <time>2013-12-05T09:13:31Z</time>
      </trkpt>
      <trkpt lat="45.9631" lon="4.70128">
        <ele>350.06</ele>
        <time>2013-12-05T09:13:48Z</time>
      </trkpt>
      <trkpt lat="45.96311" lon="4.7015">
        <ele>351.02</ele>
        <time>2013-12-05T09:14:05Z</time>
      </trkpt>
      <trkpt lat="45.9631" lon="4.70153">
        <ele>350.54</ele>
        <time>2013-12-05T09:14:08Z</time>
      </trkpt>
      <trkpt lat="45.96293" lon="4.7016">
        <ele>348.13</ele>
        <time>2013-12-05T09:14:23Z</time>
      </trkpt>
      <trkpt lat="45.96272" lon="4.70169">
        <ele>346.69</ele>
        <time>2013-12-05T09:14:40Z</time>
      </trkpt>
      <trkpt lat="45.96272" lon="4.70169">
        <ele>346.69</ele>
        <time>2013-12-05T09:14:41Z</time>
      </trkpt>
      <trkpt lat="45.96259" lon="4.7017">
        <ele>345.25</ele>
        <time>2013-12-05T09:14:54Z</time>
      </trkpt>
      <trkpt lat="45.96245" lon="4.70173">
        <ele>342.85</ele>
        <time>2013-12-05T09:15:08Z</time>
      </trkpt>
      <trkpt lat="45.96236" lon="4.70177">
        <ele>342.85</ele>
        <time>2013-12-05T09:15:17Z</time>
      </trkpt>
      <trkpt lat="45.96232" lon="4.70182">
        <ele>341.89</ele>
        <time>2013-12-05T09:15:23Z</time>
      </trkpt>
      <trkpt lat="45.96237" lon="4.70214">
        <ele>341.89</ele>
        <time>2013-12-05T09:15:43Z</time>
      </trkpt>
      <trkpt lat="45.96238" lon="4.70221">
        <ele>341.41</ele>
        <time>2013-12-05T09:15:48Z</time>
      </trkpt>
      <trkpt lat="45.96231" lon="4.70235">
        <ele>339.96</ele>
        <time>2013-12-05T09:15:59Z</time>
      </trkpt>
      <trkpt lat="45.96223" lon="4.70254">
        <ele>338.52</ele>
        <time>2013-12-05T09:16:14Z</time>
      </trkpt>
      <trkpt lat="45.96221" lon="4.70262">
        <ele>337.08</ele>
        <time>2013-12-05T09:16:20Z</time>
      </trkpt>
      <trkpt lat="45.9622" lon="4.70267">
        <ele>337.08</ele>
        <time>2013-12-05T09:16:23Z</time>
      </trkpt>
      <trkpt lat="45.96219" lon="4.7027">
        <ele>337.08</ele>
        <time>2013-12-05T09:16:25Z</time>
      </trkpt>
      <trkpt lat="45.96212" lon="4.70293">
        <ele>333.23</ele>
        <time>2013-12-05T09:16:42Z</time>
      </trkpt>
      <trkpt lat="45.96211" lon="4.70304">
        <ele>331.79</ele>
        <time>2013-12-05T09:16:50Z</time>
      </trkpt>
      <trkpt lat="45.96207" lon="4.70318">
        <ele>329.87</ele>
        <time>2013-12-05T09:17:06Z</time>
      </trkpt>
      <trkpt lat="45.96206" lon="4.70336">
        <ele>328.91</ele>
        <time>2013-12-05T09:17:20Z</time>
      </trkpt>
      <trkpt lat="45.96222" lon="4.70362">
        <ele>328.43</ele>
        <time>2013-12-05T09:17:39Z</time>
      </trkpt>
      <trkpt lat="45.9624" lon="4.70391">
        <ele>327.47</ele>
        <time>2013-12-05T09:17:59Z</time>
      </trkpt>
      <trkpt lat="45.96257" lon="4.70417">
        <ele>326.5</ele>
        <time>2013-12-05T09:18:19Z</time>
      </trkpt>
      <trkpt lat="45.96263" lon="4.7043">
        <ele>326.02</ele>
        <time>2013-12-05T09:18:35Z</time>
      </trkpt>
      <trkpt lat="45.96264" lon="4.7043">
        <ele>326.02</ele>
        <time>2013-12-05T09:18:57Z</time>
      </trkpt>
      <trkpt lat="45.96259" lon="4.70431">
        <ele>324.58</ele>
        <time>2013-12-05T09:19:08Z</time>
      </trkpt>
      <trkpt lat="45.96239" lon="4.70427">
        <ele>323.62</ele>
        <time>2013-12-05T09:19:28Z</time>
      </trkpt>
      <trkpt lat="45.9622" lon="4.70422">
        <ele>321.22</ele>
        <time>2013-12-05T09:19:44Z</time>
      </trkpt>
      <trkpt lat="45.96208" lon="4.70423">
        <ele>320.26</ele>
        <time>2013-12-05T09:19:53Z</time>
      </trkpt>
      <trkpt lat="45.96189" lon="4.70426">
        <ele>316.89</ele>
        <time>2013-12-05T09:20:11Z</time>
      </trkpt>
      <trkpt lat="45.96185" lon="4.70422">
        <ele>317.37</ele>
        <time>2013-12-05T09:20:26Z</time>
      </trkpt>
      <trkpt lat="45.96188" lon="4.70421">
        <ele>316.89</ele>
        <time>2013-12-05T09:20:35Z</time>
      </trkpt>
      <trkpt lat="45.96203" lon="4.70418">
        <ele>319.78</ele>
        <time>2013-12-05T09:20:50Z</time>
      </trkpt>
      <trkpt lat="45.96209" lon="4.70419">
        <ele>320.26</ele>
        <time>2013-12-05T09:20:55Z</time>
      </trkpt>
      <trkpt lat="45.96226" lon="4.7042">
        <ele>322.66</ele>
        <time>2013-12-05T09:21:11Z</time>
      </trkpt>
      <trkpt lat="45.96238" lon="4.70421">
        <ele>324.1</ele>
        <time>2013-12-05T09:21:25Z</time>
      </trkpt>
      <trkpt lat="45.96256" lon="4.70426">
        <ele>325.54</ele>
        <time>2013-12-05T09:21:42Z</time>
      </trkpt>
      <trkpt lat="45.96259" lon="4.70427">
        <ele>326.02</ele>
        <time>2013-12-05T09:21:45Z</time>
      </trkpt>
      <trkpt lat="45.96264" lon="4.70429">
        <ele>326.99</ele>
        <time>2013-12-05T09:21:50Z</time>
      </trkpt>
      <trkpt lat="45.96277" lon="4.70448">
        <ele>326.5</ele>
        <time>2013-12-05T09:22:04Z</time>
      </trkpt>
      <trkpt lat="45.96283" lon="4.70456">
        <ele>326.02</ele>
        <time>2013-12-05T09:22:10Z</time>
      </trkpt>
      <trkpt lat="45.96285" lon="4.70458">
        <ele>326.5</ele>
        <time>2013-12-05T09:22:12Z</time>
      </trkpt>
      <trkpt lat="45.96298" lon="4.70479">
        <ele>325.06</ele>
        <time>2013-12-05T09:22:29Z</time>
      </trkpt>
      <trkpt lat="45.96301" lon="4.70482">
        <ele>325.06</ele>
        <time>2013-12-05T09:22:32Z</time>
      </trkpt>
      <trkpt lat="45.96308" lon="4.70491">
        <ele>324.58</ele>
        <time>2013-12-05T09:22:40Z</time>
      </trkpt>
      <trkpt lat="45.96315" lon="4.70499">
        <ele>324.58</ele>
        <time>2013-12-05T09:22:47Z</time>
      </trkpt>
      <trkpt lat="45.9633" lon="4.7052">
        <ele>323.62</ele>
        <time>2013-12-05T09:23:05Z</time>
      </trkpt>
      <trkpt lat="45.96343" lon="4.70534">
        <ele>322.66</ele>
        <time>2013-12-05T09:23:18Z</time>
      </trkpt>
      <trkpt lat="45.96359" lon="4.70554">
        <ele>321.7</ele>
        <time>2013-12-05T09:23:35Z</time>
      </trkpt>
      <trkpt lat="45.96367" lon="4.70562">
        <ele>321.22</ele>
        <time>2013-12-05T09:23:43Z</time>
      </trkpt>
      <trkpt lat="45.96374" lon="4.70571">
        <ele>320.74</ele>
        <time>2013-12-05T09:23:51Z</time>
      </trkpt>
      <trkpt lat="45.96387" lon="4.70591">
        <ele>319.3</ele>
        <time>2013-12-05T09:24:07Z</time>
      </trkpt>
      <trkpt lat="45.96379" lon="4.70613">
        <ele>317.85</ele>
        <time>2013-12-05T09:24:23Z</time>
      </trkpt>
      <trkpt lat="45.9637" lon="4.70626">
        <ele>314.97</ele>
        <time>2013-12-05T09:24:35Z</time>
      </trkpt>
      <trkpt lat="45.96359" lon="4.70643">
        <ele>311.6</ele>
        <time>2013-12-05T09:24:51Z</time>
      </trkpt>
      <trkpt lat="45.96348" lon="4.70661">
        <ele>308.72</ele>
        <time>2013-12-05T09:25:06Z</time>
      </trkpt>
      <trkpt lat="45.96345" lon="4.70671">
        <ele>307.76</ele>
        <time>2013-12-05T09:25:14Z</time>
      </trkpt>
      <trkpt lat="45.96343" lon="4.70688">
        <ele>305.36</ele>
        <time>2013-12-05T09:25:30Z</time>
      </trkpt>
      <trkpt lat="45.96344" lon="4.70703">
        <ele>303.91</ele>
        <time>2013-12-05T09:25:45Z</time>
      </trkpt>
      <trkpt lat="45.96344" lon="4.70712">
        <ele>301.99</ele>
        <time>2013-12-05T09:25:54Z</time>
      </trkpt>
      <trkpt lat="45.96341" lon="4.7073">
        <ele>298.63</ele>
        <time>2013-12-05T09:26:09Z</time>
      </trkpt>
      <trkpt lat="45.96336" lon="4.70749">
        <ele>296.22</ele>
        <time>2013-12-05T09:26:24Z</time>
      </trkpt>
      <trkpt lat="45.96331" lon="4.7075">
        <ele>295.74</ele>
        <time>2013-12-05T09:26:28Z</time>
      </trkpt>
      <trkpt lat="45.96316" lon="4.7075">
        <ele>295.26</ele>
        <time>2013-12-05T09:26:40Z</time>
      </trkpt>
      <trkpt lat="45.96314" lon="4.70751">
        <ele>296.22</ele>
        <time>2013-12-05T09:26:42Z</time>
      </trkpt>
      <trkpt lat="45.96307" lon="4.7075">
        <ele>294.78</ele>
        <time>2013-12-05T09:26:56Z</time>
      </trkpt>
      <trkpt lat="45.96297" lon="4.70751">
        <ele>294.78</ele>
        <time>2013-12-05T09:27:04Z</time>
      </trkpt>
      <trkpt lat="45.9629" lon="4.70751">
        <ele>294.3</ele>
        <time>2013-12-05T09:27:12Z</time>
      </trkpt>
      <trkpt lat="45.96273" lon="4.70756">
        <ele>291.9</ele>
        <time>2013-12-05T09:27:27Z</time>
      </trkpt>
      <trkpt lat="45.96269" lon="4.70759">
        <ele>291.42</ele>
        <time>2013-12-05T09:27:31Z</time>
      </trkpt>
      <trkpt lat="45.96269" lon="4.70761">
        <ele>291.42</ele>
        <time>2013-12-05T09:27:32Z</time>
      </trkpt>
      <trkpt lat="45.96268" lon="4.70765">
        <ele>289.97</ele>
        <time>2013-12-05T09:27:35Z</time>
      </trkpt>
      <trkpt lat="45.96268" lon="4.70767">
        <ele>290.46</ele>
        <time>2013-12-05T09:27:37Z</time>
      </trkpt>
      <trkpt lat="45.96268" lon="4.70772">
        <ele>288.53</ele>
        <time>2013-12-05T09:27:41Z</time>
      </trkpt>
      <trkpt lat="45.96267" lon="4.70776">
        <ele>288.05</ele>
        <time>2013-12-05T09:27:45Z</time>
      </trkpt>
      <trkpt lat="45.96263" lon="4.70795">
        <ele>285.65</ele>
        <time>2013-12-05T09:28:01Z</time>
      </trkpt>
      <trkpt lat="45.96261" lon="4.70808">
        <ele>282.28</ele>
        <time>2013-12-05T09:28:11Z</time>
      </trkpt>
      <trkpt lat="45.96256" lon="4.70821">
        <ele>280.84</ele>
        <time>2013-12-05T09:28:22Z</time>
      </trkpt>
      <trkpt lat="45.96252" lon="4.70835">
        <ele>277</ele>
        <time>2013-12-05T09:28:34Z</time>
      </trkpt>
      <trkpt lat="45.96252" lon="4.70835">
        <ele>277</ele>
        <time>2013-12-05T09:28:35Z</time>
      </trkpt>
      <trkpt lat="45.96248" lon="4.70837">
        <ele>277</ele>
        <time>2013-12-05T09:28:55Z</time>
      </trkpt>
      <trkpt lat="45.96245" lon="4.70836">
        <ele>277</ele>
        <time>2013-12-05T09:28:59Z</time>
      </trkpt>
      <trkpt lat="45.9623" lon="4.70821">
        <ele>277</ele>
        <time>2013-12-05T09:29:17Z</time>
      </trkpt>
      <trkpt lat="45.96219" lon="4.70805">
        <ele>277</ele>
        <time>2013-12-05T09:29:33Z</time>
      </trkpt>
      <trkpt lat="45.96217" lon="4.708">
        <ele>277.48</ele>
        <time>2013-12-05T09:29:39Z</time>
      </trkpt>
      <trkpt lat="45.96205" lon="4.70787">
        <ele>277</ele>
        <time>2013-12-05T09:29:54Z</time>
      </trkpt>
      <trkpt lat="45.96191" lon="4.70775">
        <ele>277.48</ele>
        <time>2013-12-05T09:30:09Z</time>
      </trkpt>
      <trkpt lat="45.96181" lon="4.70768">
        <ele>276.52</ele>
        <time>2013-12-05T09:30:24Z</time>
      </trkpt>
      <trkpt lat="45.96172" lon="4.70763">
        <ele>275.56</ele>
        <time>2013-12-05T09:30:36Z</time>
      </trkpt>
      <trkpt lat="45.9617" lon="4.70762">
        <ele>275.56</ele>
        <time>2013-12-05T09:30:38Z</time>
      </trkpt>
      <trkpt lat="45.96163" lon="4.70753">
        <ele>276.04</ele>
        <time>2013-12-05T09:30:46Z</time>
      </trkpt>
      <trkpt lat="45.9616" lon="4.70743">
        <ele>276.52</ele>
        <time>2013-12-05T09:30:52Z</time>
      </trkpt>
      <trkpt lat="45.96155" lon="4.70731">
        <ele>275.56</ele>
        <time>2013-12-05T09:31:01Z</time>
      </trkpt>
      <trkpt lat="45.96152" lon="4.70727">
        <ele>275.07</ele>
        <time>2013-12-05T09:31:05Z</time>
      </trkpt>
      <trkpt lat="45.96141" lon="4.70719">
        <ele>274.11</ele>
        <time>2013-12-05T09:31:16Z</time>
      </trkpt>
      <trkpt lat="45.96137" lon="4.70716">
        <ele>274.11</ele>
        <time>2013-12-05T09:31:20Z</time>
      </trkpt>
      <trkpt lat="45.96121" lon="4.70717">
        <ele>272.67</ele>
        <time>2013-12-05T09:31:33Z</time>
      </trkpt>
      <trkpt lat="45.96116" lon="4.70717">
        <ele>273.15</ele>
        <time>2013-12-05T09:31:37Z</time>
      </trkpt>
      <trkpt lat="45.96093" lon="4.70719">
        <ele>270.75</ele>
        <time>2013-12-05T09:31:55Z</time>
      </trkpt>
      <trkpt lat="45.96083" lon="4.70721">
        <ele>271.23</ele>
        <time>2013-12-05T09:32:03Z</time>
      </trkpt>
      <trkpt lat="45.9608" lon="4.7072">
        <ele>270.75</ele>
        <time>2013-12-05T09:32:06Z</time>
      </trkpt>
      <trkpt lat="45.96066" lon="4.70735">
        <ele>268.83</ele>
        <time>2013-12-05T09:32:21Z</time>
      </trkpt>
      <trkpt lat="45.96052" lon="4.70761">
        <ele>265.94</ele>
        <time>2013-12-05T09:32:40Z</time>
      </trkpt>
      <trkpt lat="45.9604" lon="4.70782">
        <ele>262.1</ele>
        <time>2013-12-05T09:32:55Z</time>
      </trkpt>
      <trkpt lat="45.96028" lon="4.70804">
        <ele>259.21</ele>
        <time>2013-12-05T09:33:11Z</time>
      </trkpt>
      <trkpt lat="45.96016" lon="4.70827">
        <ele>256.33</ele>
        <time>2013-12-05T09:33:28Z</time>
      </trkpt>
      <trkpt lat="45.96006" lon="4.70852">
        <ele>253.44</ele>
        <time>2013-12-05T09:33:44Z</time>
      </trkpt>
      <trkpt lat="45.96" lon="4.70868">
        <ele>251.04</ele>
        <time>2013-12-05T09:33:55Z</time>
      </trkpt>
      <trkpt lat="45.95997" lon="4.70873">
        <ele>249.6</ele>
        <time>2013-12-05T09:34:09Z</time>
      </trkpt>
      <trkpt lat="45.95996" lon="4.70871">
        <ele>250.08</ele>
        <time>2013-12-05T09:34:30Z</time>
      </trkpt>
      <trkpt lat="45.95996" lon="4.70875">
        <ele>249.12</ele>
        <time>2013-12-05T09:34:47Z</time>
      </trkpt>
      <trkpt lat="45.95995" lon="4.70875">
        <ele>250.56</ele>
        <time>2013-12-05T09:35:12Z</time>
      </trkpt>
      <trkpt lat="45.95995" lon="4.70877">
        <ele>248.64</ele>
        <time>2013-12-05T09:35:23Z</time>
      </trkpt>
      <trkpt lat="45.95992" lon="4.70878">
        <ele>250.08</ele>
        <time>2013-12-05T09:35:36Z</time>
      </trkpt>
      <trkpt lat="45.9599" lon="4.70875">
        <ele>249.6</ele>
        <time>2013-12-05T09:36:01Z</time>
      </trkpt>
      <trkpt lat="45.9599" lon="4.70874">
        <ele>249.6</ele>
        <time>2013-12-05T09:36:29Z</time>
      </trkpt>
      <trkpt lat="45.95991" lon="4.70873">
        <ele>248.64</ele>
        <time>2013-12-05T09:36:45Z</time>
      </trkpt>
      <trkpt lat="45.95991" lon="4.70873">
        <ele>249.6</ele>
        <time>2013-12-05T09:37:18Z</time>
      </trkpt>
      <trkpt lat="45.95991" lon="4.70873">
        <ele>249.12</ele>
        <time>2013-12-05T09:37:22Z</time>
      </trkpt>
      <trkpt lat="45.9599" lon="4.70872">
        <ele>249.12</ele>
        <time>2013-12-05T09:37:54Z</time>
      </trkpt>
      <trkpt lat="45.9599" lon="4.70874">
        <ele>250.08</ele>
        <time>2013-12-05T09:38:20Z</time>
      </trkpt>
      <trkpt lat="45.9599" lon="4.70874">
        <ele>250.08</ele>
        <time>2013-12-05T09:38:44Z</time>
      </trkpt>
      <trkpt lat="45.95983" lon="4.70865">
        <ele>251.52</ele>
        <time>2013-12-05T09:38:59Z</time>
      </trkpt>
      <trkpt lat="45.95979" lon="4.70845">
        <ele>254.89</ele>
        <time>2013-12-05T09:39:19Z</time>
      </trkpt>
      <trkpt lat="45.95975" lon="4.70831">
        <ele>256.81</ele>
        <time>2013-12-05T09:39:32Z</time>
      </trkpt>
      <trkpt lat="45.95968" lon="4.70819">
        <ele>259.69</ele>
        <time>2013-12-05T09:39:50Z</time>
      </trkpt>
      <trkpt lat="45.95961" lon="4.7081">
        <ele>261.14</ele>
        <time>2013-12-05T09:40:05Z</time>
      </trkpt>
      <trkpt lat="45.95959" lon="4.70806">
        <ele>262.1</ele>
        <time>2013-12-05T09:40:09Z</time>
      </trkpt>
      <trkpt lat="45.95956" lon="4.70792">
        <ele>264.5</ele>
        <time>2013-12-05T09:40:24Z</time>
      </trkpt>
      <trkpt lat="45.95952" lon="4.7078">
        <ele>265.46</ele>
        <time>2013-12-05T09:40:33Z</time>
      </trkpt>
      <trkpt lat="45.9595" lon="4.70777">
        <ele>266.9</ele>
        <time>2013-12-05T09:40:39Z</time>
      </trkpt>
      <trkpt lat="45.95949" lon="4.70774">
        <ele>266.42</ele>
        <time>2013-12-05T09:40:42Z</time>
      </trkpt>
      <trkpt lat="45.95949" lon="4.70768">
        <ele>267.38</ele>
        <time>2013-12-05T09:40:48Z</time>
      </trkpt>
      <trkpt lat="45.95949" lon="4.70764">
        <ele>267.86</ele>
        <time>2013-12-05T09:40:51Z</time>
      </trkpt>
      <trkpt lat="45.9595" lon="4.70759">
        <ele>269.31</ele>
        <time>2013-12-05T09:40:59Z</time>
      </trkpt>
      <trkpt lat="45.9595" lon="4.70758">
        <ele>269.31</ele>
        <time>2013-12-05T09:41:08Z</time>
      </trkpt>
      <trkpt lat="45.95951" lon="4.70755">
        <ele>269.79</ele>
        <time>2013-12-05T09:41:20Z</time>
      </trkpt>
      <trkpt lat="45.95951" lon="4.70753">
        <ele>269.79</ele>
        <time>2013-12-05T09:41:22Z</time>
      </trkpt>
      <trkpt lat="45.95953" lon="4.70751">
        <ele>270.27</ele>
        <time>2013-12-05T09:41:25Z</time>
      </trkpt>
      <trkpt lat="45.95957" lon="4.70743">
        <ele>272.67</ele>
        <time>2013-12-05T09:41:36Z</time>
      </trkpt>
      <trkpt lat="45.95958" lon="4.70741">
        <ele>273.15</ele>
        <time>2013-12-05T09:41:38Z</time>
      </trkpt>
      <trkpt lat="45.95961" lon="4.70736">
        <ele>273.63</ele>
        <time>2013-12-05T09:41:44Z</time>
      </trkpt>
      <trkpt lat="45.95965" lon="4.7073">
        <ele>274.59</ele>
        <time>2013-12-05T09:41:52Z</time>
      </trkpt>
      <trkpt lat="45.95968" lon="4.70723">
        <ele>275.56</ele>
        <time>2013-12-05T09:42:00Z</time>
      </trkpt>
      <trkpt lat="45.95975" lon="4.70711">
        <ele>277</ele>
        <time>2013-12-05T09:42:10Z</time>
      </trkpt>
      <trkpt lat="45.95975" lon="4.7071">
        <ele>277</ele>
        <time>2013-12-05T09:42:11Z</time>
      </trkpt>
      <trkpt lat="45.95977" lon="4.70706">
        <ele>277.48</ele>
        <time>2013-12-05T09:42:15Z</time>
      </trkpt>
      <trkpt lat="45.9598" lon="4.70701">
        <ele>278.92</ele>
        <time>2013-12-05T09:42:22Z</time>
      </trkpt>
      <trkpt lat="45.95982" lon="4.70696">
        <ele>278.92</ele>
        <time>2013-12-05T09:42:26Z</time>
      </trkpt>
      <trkpt lat="45.95985" lon="4.7069">
        <ele>280.36</ele>
        <time>2013-12-05T09:42:31Z</time>
      </trkpt>
      <trkpt lat="45.95988" lon="4.7068">
        <ele>281.8</ele>
        <time>2013-12-05T09:42:42Z</time>
      </trkpt>
      <trkpt lat="45.95991" lon="4.70667">
        <ele>283.25</ele>
        <time>2013-12-05T09:42:52Z</time>
      </trkpt>
      <trkpt lat="45.95993" lon="4.70665">
        <ele>282.77</ele>
        <time>2013-12-05T09:42:56Z</time>
      </trkpt>
      <trkpt lat="45.95994" lon="4.70655">
        <ele>284.69</ele>
        <time>2013-12-05T09:43:04Z</time>
      </trkpt>
      <trkpt lat="45.95995" lon="4.7065">
        <ele>285.17</ele>
        <time>2013-12-05T09:43:08Z</time>
      </trkpt>
      <trkpt lat="45.95995" lon="4.70647">
        <ele>285.17</ele>
        <time>2013-12-05T09:43:11Z</time>
      </trkpt>
      <trkpt lat="45.95997" lon="4.70643">
        <ele>285.65</ele>
        <time>2013-12-05T09:43:15Z</time>
      </trkpt>
      <trkpt lat="45.95998" lon="4.7064">
        <ele>286.61</ele>
        <time>2013-12-05T09:43:19Z</time>
      </trkpt>
      <trkpt lat="45.95998" lon="4.70637">
        <ele>287.09</ele>
        <time>2013-12-05T09:43:22Z</time>
      </trkpt>
      <trkpt lat="45.95999" lon="4.70632">
        <ele>287.57</ele>
        <time>2013-12-05T09:43:26Z</time>
      </trkpt>
      <trkpt lat="45.96001" lon="4.70628">
        <ele>288.05</ele>
        <time>2013-12-05T09:43:30Z</time>
      </trkpt>
      <trkpt lat="45.96" lon="4.70624">
        <ele>288.05</ele>
        <time>2013-12-05T09:43:33Z</time>
      </trkpt>
      <trkpt lat="45.96002" lon="4.70614">
        <ele>289.49</ele>
        <time>2013-12-05T09:43:41Z</time>
      </trkpt>
      <trkpt lat="45.96003" lon="4.70607">
        <ele>290.94</ele>
        <time>2013-12-05T09:43:52Z</time>
      </trkpt>
      <trkpt lat="45.96002" lon="4.70597">
        <ele>292.38</ele>
        <time>2013-12-05T09:44:02Z</time>
      </trkpt>
      <trkpt lat="45.96003" lon="4.70587">
        <ele>293.34</ele>
        <time>2013-12-05T09:44:13Z</time>
      </trkpt>
      <trkpt lat="45.96003" lon="4.70578">
        <ele>295.26</ele>
        <time>2013-12-05T09:44:24Z</time>
      </trkpt>
      <trkpt lat="45.96004" lon="4.70568">
        <ele>296.7</ele>
        <time>2013-12-05T09:44:35Z</time>
      </trkpt>
      <trkpt lat="45.96003" lon="4.70557">
        <ele>298.15</ele>
        <time>2013-12-05T09:44:47Z</time>
      </trkpt>
      <trkpt lat="45.96003" lon="4.70548">
        <ele>299.11</ele>
        <time>2013-12-05T09:44:54Z</time>
      </trkpt>
      <trkpt lat="45.96002" lon="4.70547">
        <ele>299.59</ele>
        <time>2013-12-05T09:44:56Z</time>
      </trkpt>
      <trkpt lat="45.96002" lon="4.70536">
        <ele>301.03</ele>
        <time>2013-12-05T09:45:07Z</time>
      </trkpt>
      <trkpt lat="45.96001" lon="4.70532">
        <ele>301.03</ele>
        <time>2013-12-05T09:45:19Z</time>
      </trkpt>
      <trkpt lat="45.96" lon="4.70526">
        <ele>301.51</ele>
        <time>2013-12-05T09:45:26Z</time>
      </trkpt>
      <trkpt lat="45.96" lon="4.70523">
        <ele>301.99</ele>
        <time>2013-12-05T09:45:29Z</time>
      </trkpt>
      <trkpt lat="45.96" lon="4.70519">
        <ele>302.47</ele>
        <time>2013-12-05T09:45:32Z</time>
      </trkpt>
      <trkpt lat="45.95999" lon="4.70512">
        <ele>303.91</ele>
        <time>2013-12-05T09:45:40Z</time>
      </trkpt>
      <trkpt lat="45.95999" lon="4.70499">
        <ele>305.36</ele>
        <time>2013-12-05T09:45:54Z</time>
      </trkpt>
      <trkpt lat="45.96" lon="4.70497">
        <ele>305.84</ele>
        <time>2013-12-05T09:45:56Z</time>
      </trkpt>
      <trkpt lat="45.96" lon="4.70483">
        <ele>307.76</ele>
        <time>2013-12-05T09:46:08Z</time>
      </trkpt>
      <trkpt lat="45.96" lon="4.70473">
        <ele>309.2</ele>
        <time>2013-12-05T09:46:18Z</time>
      </trkpt>
      <trkpt lat="45.96" lon="4.70466">
        <ele>310.16</ele>
        <time>2013-12-05T09:46:24Z</time>
      </trkpt>
      <trkpt lat="45.96" lon="4.70452">
        <ele>311.6</ele>
        <time>2013-12-05T09:46:35Z</time>
      </trkpt>
      <trkpt lat="45.96" lon="4.70451">
        <ele>312.09</ele>
        <time>2013-12-05T09:46:36Z</time>
      </trkpt>
      <trkpt lat="45.96" lon="4.70449">
        <ele>312.09</ele>
        <time>2013-12-05T09:46:39Z</time>
      </trkpt>
      <trkpt lat="45.96001" lon="4.70444">
        <ele>313.05</ele>
        <time>2013-12-05T09:46:46Z</time>
      </trkpt>
      <trkpt lat="45.96004" lon="4.70432">
        <ele>314.49</ele>
        <time>2013-12-05T09:46:56Z</time>
      </trkpt>
      <trkpt lat="45.96007" lon="4.70422">
        <ele>315.45</ele>
        <time>2013-12-05T09:47:07Z</time>
      </trkpt>
      <trkpt lat="45.96009" lon="4.70415">
        <ele>315.93</ele>
        <time>2013-12-05T09:47:13Z</time>
      </trkpt>
      <trkpt lat="45.9601" lon="4.70411">
        <ele>317.37</ele>
        <time>2013-12-05T09:47:24Z</time>
      </trkpt>
      <trkpt lat="45.96008" lon="4.70408">
        <ele>316.89</ele>
        <time>2013-12-05T09:47:40Z</time>
      </trkpt>
      <trkpt lat="45.96008" lon="4.70409">
        <ele>316.89</ele>
        <time>2013-12-05T09:47:56Z</time>
      </trkpt>
      <trkpt lat="45.96007" lon="4.7041">
        <ele>316.89</ele>
        <time>2013-12-05T09:48:27Z</time>
      </trkpt>
      <trkpt lat="45.96007" lon="4.7041">
        <ele>317.37</ele>
        <time>2013-12-05T09:48:51Z</time>
      </trkpt>
      <trkpt lat="45.9601" lon="4.70404">
        <ele>316.41</ele>
        <time>2013-12-05T09:49:17Z</time>
      </trkpt>
      <trkpt lat="45.96011" lon="4.70401">
        <ele>317.85</ele>
        <time>2013-12-05T09:49:19Z</time>
      </trkpt>
      <trkpt lat="45.9601" lon="4.70392">
        <ele>320.26</ele>
        <time>2013-12-05T09:49:33Z</time>
      </trkpt>
      <trkpt lat="45.9601" lon="4.70371">
        <ele>321.7</ele>
        <time>2013-12-05T09:49:47Z</time>
      </trkpt>
      <trkpt lat="45.96012" lon="4.70365">
        <ele>323.14</ele>
        <time>2013-12-05T09:49:59Z</time>
      </trkpt>
      <trkpt lat="45.96012" lon="4.70363">
        <ele>323.14</ele>
        <time>2013-12-05T09:50:00Z</time>
      </trkpt>
      <trkpt lat="45.96014" lon="4.70359">
        <ele>323.62</ele>
        <time>2013-12-05T09:50:03Z</time>
      </trkpt>
      <trkpt lat="45.96017" lon="4.70345">
        <ele>324.58</ele>
        <time>2013-12-05T09:50:14Z</time>
      </trkpt>
      <trkpt lat="45.96018" lon="4.70342">
        <ele>324.58</ele>
        <time>2013-12-05T09:50:16Z</time>
      </trkpt>
      <trkpt lat="45.9602" lon="4.70337">
        <ele>325.06</ele>
        <time>2013-12-05T09:50:20Z</time>
      </trkpt>
      <trkpt lat="45.96021" lon="4.70333">
        <ele>325.54</ele>
        <time>2013-12-05T09:50:24Z</time>
      </trkpt>
      <trkpt lat="45.96027" lon="4.70315">
        <ele>326.99</ele>
        <time>2013-12-05T09:50:37Z</time>
      </trkpt>
      <trkpt lat="45.9603" lon="4.70307">
        <ele>327.95</ele>
        <time>2013-12-05T09:50:44Z</time>
      </trkpt>
      <trkpt lat="45.96038" lon="4.70291">
        <ele>328.91</ele>
        <time>2013-12-05T09:50:58Z</time>
      </trkpt>
      <trkpt lat="45.96042" lon="4.70277">
        <ele>329.87</ele>
        <time>2013-12-05T09:51:09Z</time>
      </trkpt>
      <trkpt lat="45.96047" lon="4.70258">
        <ele>331.79</ele>
        <time>2013-12-05T09:51:23Z</time>
      </trkpt>
      <trkpt lat="45.96051" lon="4.70238">
        <ele>333.71</ele>
        <time>2013-12-05T09:51:38Z</time>
      </trkpt>
      <trkpt lat="45.96053" lon="4.70221">
        <ele>334.68</ele>
        <time>2013-12-05T09:51:50Z</time>
      </trkpt>
      <trkpt lat="45.96052" lon="4.70205">
        <ele>336.12</ele>
        <time>2013-12-05T09:52:02Z</time>
      </trkpt>
      <trkpt lat="45.96053" lon="4.70199">
        <ele>336.6</ele>
        <time>2013-12-05T09:52:07Z</time>
      </trkpt>
      <trkpt lat="45.96053" lon="4.70196">
        <ele>337.08</ele>
        <time>2013-12-05T09:52:09Z</time>
      </trkpt>
      <trkpt lat="45.96054" lon="4.7019">
        <ele>337.56</ele>
        <time>2013-12-05T09:52:13Z</time>
      </trkpt>
      <trkpt lat="45.96051" lon="4.70186">
        <ele>337.56</ele>
        <time>2013-12-05T09:52:17Z</time>
      </trkpt>
      <trkpt lat="45.96048" lon="4.70179">
        <ele>337.08</ele>
        <time>2013-12-05T09:52:32Z</time>
      </trkpt>
      <trkpt lat="45.96046" lon="4.70177">
        <ele>337.56</ele>
        <time>2013-12-05T09:52:41Z</time>
      </trkpt>
      <trkpt lat="45.96043" lon="4.70174">
        <ele>337.56</ele>
        <time>2013-12-05T09:52:45Z</time>
      </trkpt>
      <trkpt lat="45.96036" lon="4.70168">
        <ele>338.04</ele>
        <time>2013-12-05T09:52:52Z</time>
      </trkpt>
      <trkpt lat="45.96031" lon="4.70162">
        <ele>337.56</ele>
        <time>2013-12-05T09:52:58Z</time>
      </trkpt>
      <trkpt lat="45.96017" lon="4.70148">
        <ele>338.52</ele>
        <time>2013-12-05T09:53:14Z</time>
      </trkpt>
      <trkpt lat="45.96011" lon="4.7014">
        <ele>338.52</ele>
        <time>2013-12-05T09:53:22Z</time>
      </trkpt>
      <trkpt lat="45.96006" lon="4.70126">
        <ele>339</ele>
        <time>2013-12-05T09:53:31Z</time>
      </trkpt>
      <trkpt lat="45.96002" lon="4.70121">
        <ele>338.04</ele>
        <time>2013-12-05T09:53:36Z</time>
      </trkpt>
      <trkpt lat="45.95994" lon="4.7011">
        <ele>338.04</ele>
        <time>2013-12-05T09:53:45Z</time>
      </trkpt>
      <trkpt lat="45.95996" lon="4.70101">
        <ele>338.04</ele>
        <time>2013-12-05T09:53:50Z</time>
      </trkpt>
      <trkpt lat="45.95998" lon="4.70097">
        <ele>339</ele>
        <time>2013-12-05T09:53:53Z</time>
      </trkpt>
      <trkpt lat="45.96004" lon="4.70093">
        <ele>339.48</ele>
        <time>2013-12-05T09:53:58Z</time>
      </trkpt>
      <trkpt lat="45.96011" lon="4.70091">
        <ele>339.48</ele>
        <time>2013-12-05T09:54:03Z</time>
      </trkpt>
      <trkpt lat="45.96032" lon="4.70084">
        <ele>339.96</ele>
        <time>2013-12-05T09:54:20Z</time>
      </trkpt>
      <trkpt lat="45.9605" lon="4.70078">
        <ele>339.48</ele>
        <time>2013-12-05T09:54:35Z</time>
      </trkpt>
      <trkpt lat="45.96056" lon="4.70075">
        <ele>339</ele>
        <time>2013-12-05T09:54:41Z</time>
      </trkpt>
      <trkpt lat="45.96063" lon="4.70072">
        <ele>339</ele>
        <time>2013-12-05T09:54:47Z</time>
      </trkpt>
      <trkpt lat="45.96081" lon="4.7007">
        <ele>339.48</ele>
        <time>2013-12-05T09:55:01Z</time>
      </trkpt>
      <trkpt lat="45.96093" lon="4.70069">
        <ele>339</ele>
        <time>2013-12-05T09:55:10Z</time>
      </trkpt>
      <trkpt lat="45.96101" lon="4.70069">
        <ele>339.96</ele>
        <time>2013-12-05T09:55:16Z</time>
      </trkpt>
      <trkpt lat="45.96123" lon="4.70071">
        <ele>339.96</ele>
        <time>2013-12-05T09:55:33Z</time>
      </trkpt>
      <trkpt lat="45.96128" lon="4.7007">
        <ele>340.44</ele>
        <time>2013-12-05T09:55:38Z</time>
      </trkpt>
      <trkpt lat="45.96146" lon="4.70069">
        <ele>341.41</ele>
        <time>2013-12-05T09:55:53Z</time>
      </trkpt>
      <trkpt lat="45.96163" lon="4.70068">
        <ele>341.89</ele>
        <time>2013-12-05T09:56:07Z</time>
      </trkpt>
      <trkpt lat="45.96164" lon="4.70068">
        <ele>341.41</ele>
        <time>2013-12-05T09:56:08Z</time>
      </trkpt>
      <trkpt lat="45.96177" lon="4.70066">
        <ele>341.89</ele>
        <time>2013-12-05T09:56:20Z</time>
      </trkpt>
      <trkpt lat="45.96193" lon="4.70066">
        <ele>342.85</ele>
        <time>2013-12-05T09:56:35Z</time>
      </trkpt>
      <trkpt lat="45.96207" lon="4.70066">
        <ele>344.29</ele>
        <time>2013-12-05T09:56:50Z</time>
      </trkpt>
      <trkpt lat="45.96225" lon="4.70069">
        <ele>345.25</ele>
        <time>2013-12-05T09:57:05Z</time>
      </trkpt>
      <trkpt lat="45.96229" lon="4.7007">
        <ele>345.73</ele>
        <time>2013-12-05T09:57:08Z</time>
      </trkpt>
      <trkpt lat="45.96235" lon="4.70081">
        <ele>346.21</ele>
        <time>2013-12-05T09:57:22Z</time>
      </trkpt>
      <trkpt lat="45.96238" lon="4.70074">
        <ele>346.21</ele>
        <time>2013-12-05T09:57:42Z</time>
      </trkpt>
      <trkpt lat="45.96252" lon="4.70074">
        <ele>347.17</ele>
        <time>2013-12-05T09:57:56Z</time>
      </trkpt>
      <trkpt lat="45.96264" lon="4.70074">
        <ele>347.17</ele>
        <time>2013-12-05T09:58:06Z</time>
      </trkpt>
      <trkpt lat="45.96283" lon="4.70062">
        <ele>342.85</ele>
        <time>2013-12-05T09:58:22Z</time>
      </trkpt>
      <trkpt lat="45.96282" lon="4.7006">
        <ele>342.85</ele>
        <time>2013-12-05T09:58:24Z</time>
      </trkpt>
      <trkpt lat="45.96282" lon="4.70058">
        <ele>341.89</ele>
        <time>2013-12-05T09:58:25Z</time>
      </trkpt>
      <trkpt lat="45.96285" lon="4.70057">
        <ele>343.81</ele>
        <time>2013-12-05T09:58:28Z</time>
      </trkpt>
      <trkpt lat="45.96297" lon="4.70045">
        <ele>343.81</ele>
        <time>2013-12-05T09:58:43Z</time>
      </trkpt>
      <trkpt lat="45.96308" lon="4.70033">
        <ele>345.25</ele>
        <time>2013-12-05T09:58:57Z</time>
      </trkpt>
      <trkpt lat="45.96312" lon="4.70012">
        <ele>345.73</ele>
        <time>2013-12-05T09:59:09Z</time>
      </trkpt>
      <trkpt lat="45.96316" lon="4.7">
        <ele>345.73</ele>
        <time>2013-12-05T09:59:17Z</time>
      </trkpt>
      <trkpt lat="45.96322" lon="4.69985">
        <ele>346.69</ele>
        <time>2013-12-05T09:59:32Z</time>
      </trkpt>
      <trkpt lat="45.96321" lon="4.69976">
        <ele>345.25</ele>
        <time>2013-12-05T09:59:47Z</time>
      </trkpt>
      <trkpt lat="45.96321" lon="4.6997">
        <ele>345.73</ele>
        <time>2013-12-05T09:59:53Z</time>
      </trkpt>
      <trkpt lat="45.96319" lon="4.69955">
        <ele>344.29</ele>
        <time>2013-12-05T10:00:03Z</time>
      </trkpt>
      <trkpt lat="45.96317" lon="4.69937">
        <ele>342.37</ele>
        <time>2013-12-05T10:00:19Z</time>
      </trkpt>
      <trkpt lat="45.96314" lon="4.69931">
        <ele>340.92</ele>
        <time>2013-12-05T10:00:24Z</time>
      </trkpt>
      <trkpt lat="45.96307" lon="4.69924">
        <ele>339.48</ele>
        <time>2013-12-05T10:00:33Z</time>
      </trkpt>
      <trkpt lat="45.96304" lon="4.69923">
        <ele>339</ele>
        <time>2013-12-05T10:00:36Z</time>
      </trkpt>
      <trkpt lat="45.96298" lon="4.69917">
        <ele>338.52</ele>
        <time>2013-12-05T10:00:42Z</time>
      </trkpt>
      <trkpt lat="45.96295" lon="4.69907">
        <ele>337.08</ele>
        <time>2013-12-05T10:00:48Z</time>
      </trkpt>
      <trkpt lat="45.96295" lon="4.69897">
        <ele>336.12</ele>
        <time>2013-12-05T10:00:53Z</time>
      </trkpt>
      <trkpt lat="45.96295" lon="4.69891">
        <ele>335.64</ele>
        <time>2013-12-05T10:00:56Z</time>
      </trkpt>
      <trkpt lat="45.96297" lon="4.69863">
        <ele>333.23</ele>
        <time>2013-12-05T10:01:11Z</time>
      </trkpt>
      <trkpt lat="45.96297" lon="4.69858">
        <ele>332.27</ele>
        <time>2013-12-05T10:01:14Z</time>
      </trkpt>
      <trkpt lat="45.96298" lon="4.69831">
        <ele>329.39</ele>
        <time>2013-12-05T10:01:31Z</time>
      </trkpt>
      <trkpt lat="45.96299" lon="4.69809">
        <ele>326.5</ele>
        <time>2013-12-05T10:01:45Z</time>
      </trkpt>
      <trkpt lat="45.96299" lon="4.69807">
        <ele>326.02</ele>
        <time>2013-12-05T10:01:46Z</time>
      </trkpt>
      <trkpt lat="45.96299" lon="4.6978">
        <ele>323.62</ele>
        <time>2013-12-05T10:02:02Z</time>
      </trkpt>
      <trkpt lat="45.96299" lon="4.69774">
        <ele>323.14</ele>
        <time>2013-12-05T10:02:06Z</time>
      </trkpt>
      <trkpt lat="45.96301" lon="4.69749">
        <ele>319.78</ele>
        <time>2013-12-05T10:02:21Z</time>
      </trkpt>
      <trkpt lat="45.9631" lon="4.6972">
        <ele>316.89</ele>
        <time>2013-12-05T10:02:39Z</time>
      </trkpt>
      <trkpt lat="45.96317" lon="4.69695">
        <ele>315.45</ele>
        <time>2013-12-05T10:02:55Z</time>
      </trkpt>
      <trkpt lat="45.96318" lon="4.69693">
        <ele>314.97</ele>
        <time>2013-12-05T10:02:56Z</time>
      </trkpt>
      <trkpt lat="45.96319" lon="4.69687">
        <ele>314.01</ele>
        <time>2013-12-05T10:03:00Z</time>
      </trkpt>
      <trkpt lat="45.96319" lon="4.69681">
        <ele>313.53</ele>
        <time>2013-12-05T10:03:04Z</time>
      </trkpt>
      <trkpt lat="45.96324" lon="4.69656">
        <ele>310.16</ele>
        <time>2013-12-05T10:03:21Z</time>
      </trkpt>
      <trkpt lat="45.96327" lon="4.69636">
        <ele>308.72</ele>
        <time>2013-12-05T10:03:34Z</time>
      </trkpt>
      <trkpt lat="45.96333" lon="4.69605">
        <ele>307.28</ele>
        <time>2013-12-05T10:03:52Z</time>
      </trkpt>
      <trkpt lat="45.9634" lon="4.69575">
        <ele>304.39</ele>
        <time>2013-12-05T10:04:11Z</time>
      </trkpt>
      <trkpt lat="45.96342" lon="4.69562">
        <ele>303.43</ele>
        <time>2013-12-05T10:04:19Z</time>
      </trkpt>
      <trkpt lat="45.9635" lon="4.69536">
        <ele>300.07</ele>
        <time>2013-12-05T10:04:39Z</time>
      </trkpt>
      <trkpt lat="45.96351" lon="4.69535">
        <ele>300.07</ele>
        <time>2013-12-05T10:04:40Z</time>
      </trkpt>
      <trkpt lat="45.96356" lon="4.6952">
        <ele>298.63</ele>
        <time>2013-12-05T10:04:54Z</time>
      </trkpt>
      <trkpt lat="45.96355" lon="4.69517">
        <ele>299.11</ele>
        <time>2013-12-05T10:05:08Z</time>
      </trkpt>
      <trkpt lat="45.9635" lon="4.69512">
        <ele>298.63</ele>
        <time>2013-12-05T10:05:21Z</time>
      </trkpt>
      <trkpt lat="45.96334" lon="4.69509">
        <ele>298.15</ele>
        <time>2013-12-05T10:05:37Z</time>
      </trkpt>
      <trkpt lat="45.96332" lon="4.69505">
        <ele>298.15</ele>
        <time>2013-12-05T10:05:41Z</time>
      </trkpt>
      <trkpt lat="45.96335" lon="4.69494">
        <ele>297.67</ele>
        <time>2013-12-05T10:05:48Z</time>
      </trkpt>
      <trkpt lat="45.96336" lon="4.69484">
        <ele>296.22</ele>
        <time>2013-12-05T10:05:54Z</time>
      </trkpt>
      <trkpt lat="45.9634" lon="4.69462">
        <ele>294.3</ele>
        <time>2013-12-05T10:06:08Z</time>
      </trkpt>
      <trkpt lat="45.96341" lon="4.69458">
        <ele>293.82</ele>
        <time>2013-12-05T10:06:11Z</time>
      </trkpt>
      <trkpt lat="45.96347" lon="4.69431">
        <ele>290.94</ele>
        <time>2013-12-05T10:06:30Z</time>
      </trkpt>
      <trkpt lat="45.96351" lon="4.69409">
        <ele>289.97</ele>
        <time>2013-12-05T10:06:45Z</time>
      </trkpt>
      <trkpt lat="45.96352" lon="4.69403">
        <ele>288.53</ele>
        <time>2013-12-05T10:06:49Z</time>
      </trkpt>
      <trkpt lat="45.96356" lon="4.69388">
        <ele>287.09</ele>
        <time>2013-12-05T10:06:59Z</time>
      </trkpt>
      <trkpt lat="45.96362" lon="4.69369">
        <ele>285.65</ele>
        <time>2013-12-05T10:07:13Z</time>
      </trkpt>
      <trkpt lat="45.96368" lon="4.69352">
        <ele>283.25</ele>
        <time>2013-12-05T10:07:26Z</time>
      </trkpt>
      <trkpt lat="45.96379" lon="4.69331">
        <ele>280.36</ele>
        <time>2013-12-05T10:07:43Z</time>
      </trkpt>
      <trkpt lat="45.96379" lon="4.69326">
        <ele>280.36</ele>
        <time>2013-12-05T10:07:46Z</time>
      </trkpt>
      <trkpt lat="45.96384" lon="4.69297">
        <ele>277.48</ele>
        <time>2013-12-05T10:08:04Z</time>
      </trkpt>
      <trkpt lat="45.96388" lon="4.69269">
        <ele>275.56</ele>
        <time>2013-12-05T10:08:22Z</time>
      </trkpt>
      <trkpt lat="45.96388" lon="4.69268">
        <ele>275.07</ele>
        <time>2013-12-05T10:08:36Z</time>
      </trkpt>
      <trkpt lat="45.96394" lon="4.69266">
        <ele>275.07</ele>
        <time>2013-12-05T10:08:49Z</time>
      </trkpt>
      <trkpt lat="45.96398" lon="4.69266">
        <ele>274.59</ele>
        <time>2013-12-05T10:08:58Z</time>
      </trkpt>
      <trkpt lat="45.96397" lon="4.69266">
        <ele>274.59</ele>
        <time>2013-12-05T10:09:06Z</time>
      </trkpt>
      <trkpt lat="45.96407" lon="4.69262">
        <ele>274.11</ele>
        <time>2013-12-05T10:09:17Z</time>
      </trkpt>
      <trkpt lat="45.96429" lon="4.69259">
        <ele>272.19</ele>
        <time>2013-12-05T10:09:35Z</time>
      </trkpt>
      <trkpt lat="45.96452" lon="4.69259">
        <ele>271.23</ele>
        <time>2013-12-05T10:09:52Z</time>
      </trkpt>
      <trkpt lat="45.96472" lon="4.69261">
        <ele>270.75</ele>
        <time>2013-12-05T10:10:09Z</time>
      </trkpt>
      <trkpt lat="45.96495" lon="4.69266">
        <ele>270.27</ele>
        <time>2013-12-05T10:10:27Z</time>
      </trkpt>
      <trkpt lat="45.96512" lon="4.69271">
        <ele>270.27</ele>
        <time>2013-12-05T10:10:41Z</time>
      </trkpt>
      <trkpt lat="45.9652" lon="4.69273">
        <ele>270.27</ele>
        <time>2013-12-05T10:10:48Z</time>
      </trkpt>
      <trkpt lat="45.96542" lon="4.69282">
        <ele>270.27</ele>
        <time>2013-12-05T10:11:05Z</time>
      </trkpt>
      <trkpt lat="45.96555" lon="4.69288">
        <ele>270.75</ele>
        <time>2013-12-05T10:11:17Z</time>
      </trkpt>
      <trkpt lat="45.96575" lon="4.69293">
        <ele>270.27</ele>
        <time>2013-12-05T10:11:35Z</time>
      </trkpt>
      <trkpt lat="45.9658" lon="4.69293">
        <ele>270.27</ele>
        <time>2013-12-05T10:11:40Z</time>
      </trkpt>
      <trkpt lat="45.96599" lon="4.69297">
        <ele>271.71</ele>
        <time>2013-12-05T10:11:55Z</time>
      </trkpt>
      <trkpt lat="45.96613" lon="4.69299">
        <ele>272.19</ele>
        <time>2013-12-05T10:12:06Z</time>
      </trkpt>
      <trkpt lat="45.96632" lon="4.69296">
        <ele>273.63</ele>
        <time>2013-12-05T10:12:22Z</time>
      </trkpt>
      <trkpt lat="45.96646" lon="4.69284">
        <ele>274.59</ele>
        <time>2013-12-05T10:12:36Z</time>
      </trkpt>
      <trkpt lat="45.96653" lon="4.69271">
        <ele>275.07</ele>
        <time>2013-12-05T10:12:46Z</time>
      </trkpt>
      <trkpt lat="45.96657" lon="4.69267">
        <ele>275.07</ele>
        <time>2013-12-05T10:12:54Z</time>
      </trkpt>
      <trkpt lat="45.96658" lon="4.69265">
        <ele>275.07</ele>
        <time>2013-12-05T10:12:56Z</time>
      </trkpt>
      <trkpt lat="45.96664" lon="4.6924">
        <ele>274.11</ele>
        <time>2013-12-05T10:13:14Z</time>
      </trkpt>
      <trkpt lat="45.96676" lon="4.69215">
        <ele>271.71</ele>
        <time>2013-12-05T10:13:33Z</time>
      </trkpt>
      <trkpt lat="45.96689" lon="4.69191">
        <ele>270.27</ele>
        <time>2013-12-05T10:13:51Z</time>
      </trkpt>
      <trkpt lat="45.967" lon="4.69171">
        <ele>268.83</ele>
        <time>2013-12-05T10:14:07Z</time>
      </trkpt>
      <trkpt lat="45.96702" lon="4.69169">
        <ele>268.83</ele>
        <time>2013-12-05T10:14:09Z</time>
      </trkpt>
      <trkpt lat="45.96709" lon="4.69147">
        <ele>266.9</ele>
        <time>2013-12-05T10:14:24Z</time>
      </trkpt>
      <trkpt lat="45.96717" lon="4.69122">
        <ele>264.5</ele>
        <time>2013-12-05T10:14:42Z</time>
      </trkpt>
      <trkpt lat="45.9672" lon="4.69111">
        <ele>264.5</ele>
        <time>2013-12-05T10:14:48Z</time>
      </trkpt>
      <trkpt lat="45.96725" lon="4.69089">
        <ele>264.02</ele>
        <time>2013-12-05T10:15:03Z</time>
      </trkpt>
      <trkpt lat="45.96727" lon="4.69082">
        <ele>264.02</ele>
        <time>2013-12-05T10:15:08Z</time>
      </trkpt>
      <trkpt lat="45.96731" lon="4.69057">
        <ele>264.5</ele>
        <time>2013-12-05T10:15:24Z</time>
      </trkpt>
      <trkpt lat="45.96732" lon="4.69052">
        <ele>264.98</ele>
        <time>2013-12-05T10:15:38Z</time>
      </trkpt>
      <trkpt lat="45.96735" lon="4.6905">
        <ele>264.98</ele>
        <time>2013-12-05T10:15:51Z</time>
      </trkpt>
      <trkpt lat="45.96746" lon="4.69047">
        <ele>266.9</ele>
        <time>2013-12-05T10:16:00Z</time>
      </trkpt>
      <trkpt lat="45.96765" lon="4.69044">
        <ele>267.38</ele>
        <time>2013-12-05T10:16:15Z</time>
      </trkpt>
      <trkpt lat="45.96778" lon="4.69041">
        <ele>267.38</ele>
        <time>2013-12-05T10:16:28Z</time>
      </trkpt>
      <trkpt lat="45.96792" lon="4.69038">
        <ele>267.86</ele>
        <time>2013-12-05T10:16:40Z</time>
      </trkpt>
      <trkpt lat="45.96807" lon="4.6903">
        <ele>269.31</ele>
        <time>2013-12-05T10:16:54Z</time>
      </trkpt>
      <trkpt lat="45.96824" lon="4.69027">
        <ele>269.79</ele>
        <time>2013-12-05T10:17:11Z</time>
      </trkpt>
      <trkpt lat="45.96844" lon="4.69027">
        <ele>270.27</ele>
        <time>2013-12-05T10:17:28Z</time>
      </trkpt>
      <trkpt lat="45.96864" lon="4.69025">
        <ele>270.27</ele>
        <time>2013-12-05T10:17:44Z</time>
      </trkpt>
      <trkpt lat="45.96885" lon="4.69016">
        <ele>270.27</ele>
        <time>2013-12-05T10:18:01Z</time>
      </trkpt>
      <trkpt lat="45.96902" lon="4.69023">
        <ele>270.75</ele>
        <time>2013-12-05T10:18:15Z</time>
      </trkpt>
      <trkpt lat="45.96914" lon="4.69044">
        <ele>270.75</ele>
        <time>2013-12-05T10:18:31Z</time>
      </trkpt>
      <trkpt lat="45.96919" lon="4.69061">
        <ele>269.79</ele>
        <time>2013-12-05T10:18:41Z</time>
      </trkpt>
      <trkpt lat="45.96932" lon="4.69074">
        <ele>269.31</ele>
        <time>2013-12-05T10:18:56Z</time>
      </trkpt>
      <trkpt lat="45.96935" lon="4.69075">
        <ele>269.31</ele>
        <time>2013-12-05T10:18:58Z</time>
      </trkpt>
      <trkpt lat="45.96957" lon="4.69096">
        <ele>266.9</ele>
        <time>2013-12-05T10:19:19Z</time>
      </trkpt>
      <trkpt lat="45.96963" lon="4.69109">
        <ele>265.94</ele>
        <time>2013-12-05T10:19:33Z</time>
      </trkpt>
      <trkpt lat="45.96964" lon="4.69117">
        <ele>264.98</ele>
        <time>2013-12-05T10:19:43Z</time>
      </trkpt>
      <trkpt lat="45.96958" lon="4.69153">
        <ele>264.02</ele>
        <time>2013-12-05T10:20:05Z</time>
      </trkpt>
      <trkpt lat="45.96952" lon="4.69182">
        <ele>263.54</ele>
        <time>2013-12-05T10:20:25Z</time>
      </trkpt>
      <trkpt lat="45.96948" lon="4.69206">
        <ele>262.58</ele>
        <time>2013-12-05T10:20:43Z</time>
      </trkpt>
      <trkpt lat="45.96945" lon="4.69222">
        <ele>263.54</ele>
        <time>2013-12-05T10:20:56Z</time>
      </trkpt>
      <trkpt lat="45.96939" lon="4.69248">
        <ele>263.54</ele>
        <time>2013-12-05T10:21:12Z</time>
      </trkpt>
      <trkpt lat="45.96933" lon="4.6927">
        <ele>264.98</ele>
        <time>2013-12-05T10:21:26Z</time>
      </trkpt>
      <trkpt lat="45.96928" lon="4.69279">
        <ele>265.46</ele>
        <time>2013-12-05T10:21:32Z</time>
      </trkpt>
      <trkpt lat="45.96926" lon="4.69303">
        <ele>266.42</ele>
        <time>2013-12-05T10:21:47Z</time>
      </trkpt>
      <trkpt lat="45.96934" lon="4.69319">
        <ele>266.9</ele>
        <time>2013-12-05T10:21:59Z</time>
      </trkpt>
      <trkpt lat="45.96944" lon="4.69341">
        <ele>267.38</ele>
        <time>2013-12-05T10:22:14Z</time>
      </trkpt>
      <trkpt lat="45.96945" lon="4.69345">
        <ele>266.9</ele>
        <time>2013-12-05T10:22:17Z</time>
      </trkpt>
      <trkpt lat="45.9695" lon="4.69359">
        <ele>266.42</ele>
        <time>2013-12-05T10:22:26Z</time>
      </trkpt>
      <trkpt lat="45.9696" lon="4.69386">
        <ele>265.46</ele>
        <time>2013-12-05T10:22:44Z</time>
      </trkpt>
      <trkpt lat="45.96968" lon="4.69403">
        <ele>264.5</ele>
        <time>2013-12-05T10:22:56Z</time>
      </trkpt>
      <trkpt lat="45.96973" lon="4.69411">
        <ele>264.02</ele>
        <time>2013-12-05T10:23:02Z</time>
      </trkpt>
      <trkpt lat="45.96975" lon="4.69415">
        <ele>263.06</ele>
        <time>2013-12-05T10:23:05Z</time>
      </trkpt>
      <trkpt lat="45.96989" lon="4.69441">
        <ele>261.14</ele>
        <time>2013-12-05T10:23:23Z</time>
      </trkpt>
      <trkpt lat="45.97004" lon="4.69466">
        <ele>258.73</ele>
        <time>2013-12-05T10:23:42Z</time>
      </trkpt>
      <trkpt lat="45.97018" lon="4.69488">
        <ele>256.81</ele>
        <time>2013-12-05T10:23:59Z</time>
      </trkpt>
      <trkpt lat="45.97031" lon="4.69507">
        <ele>254.89</ele>
        <time>2013-12-05T10:24:15Z</time>
      </trkpt>
      <trkpt lat="45.97044" lon="4.69527">
        <ele>253.44</ele>
        <time>2013-12-05T10:24:32Z</time>
      </trkpt>
      <trkpt lat="45.97053" lon="4.69541">
        <ele>252.48</ele>
        <time>2013-12-05T10:24:44Z</time>
      </trkpt>
      <trkpt lat="45.97066" lon="4.69566">
        <ele>251.52</ele>
        <time>2013-12-05T10:25:02Z</time>
      </trkpt>
      <trkpt lat="45.97066" lon="4.69569">
        <ele>251.52</ele>
        <time>2013-12-05T10:25:12Z</time>
      </trkpt>
      <trkpt lat="45.97068" lon="4.69576">
        <ele>251.52</ele>
        <time>2013-12-05T10:25:17Z</time>
      </trkpt>
      <trkpt lat="45.97068" lon="4.69593">
        <ele>251.04</ele>
        <time>2013-12-05T10:25:32Z</time>
      </trkpt>
      <trkpt lat="45.97069" lon="4.69606">
        <ele>250.56</ele>
        <time>2013-12-05T10:25:44Z</time>
      </trkpt>
      <trkpt lat="45.97069" lon="4.69638">
        <ele>250.56</ele>
        <time>2013-12-05T10:26:02Z</time>
      </trkpt>
      <trkpt lat="45.97071" lon="4.69667">
        <ele>250.56</ele>
        <time>2013-12-05T10:26:18Z</time>
      </trkpt>
      <trkpt lat="45.97073" lon="4.6967">
        <ele>250.56</ele>
        <time>2013-12-05T10:26:31Z</time>
      </trkpt>
      <trkpt lat="45.97073" lon="4.69674">
        <ele>250.56</ele>
        <time>2013-12-05T10:26:40Z</time>
      </trkpt>
      <trkpt lat="45.97073" lon="4.69677">
        <ele>250.56</ele>
        <time>2013-12-05T10:26:42Z</time>
      </trkpt>
      <trkpt lat="45.97074" lon="4.69681">
        <ele>250.56</ele>
        <time>2013-12-05T10:26:44Z</time>
      </trkpt>
      <trkpt lat="45.97072" lon="4.69689">
        <ele>250.56</ele>
        <time>2013-12-05T10:26:51Z</time>
      </trkpt>
      <trkpt lat="45.97072" lon="4.69695">
        <ele>251.04</ele>
        <time>2013-12-05T10:26:57Z</time>
      </trkpt>
      <trkpt lat="45.97074" lon="4.69703">
        <ele>251.04</ele>
        <time>2013-12-05T10:27:02Z</time>
      </trkpt>
      <trkpt lat="45.97083" lon="4.69725">
        <ele>251.04</ele>
        <time>2013-12-05T10:27:18Z</time>
      </trkpt>
      <trkpt lat="45.97087" lon="4.69738">
        <ele>252</ele>
        <time>2013-12-05T10:27:31Z</time>
      </trkpt>
      <trkpt lat="45.97089" lon="4.69739">
        <ele>252.48</ele>
        <time>2013-12-05T10:27:33Z</time>
      </trkpt>
      <trkpt lat="45.97106" lon="4.69752">
        <ele>251.52</ele>
        <time>2013-12-05T10:27:48Z</time>
      </trkpt>
      <trkpt lat="45.97123" lon="4.69765">
        <ele>252.48</ele>
        <time>2013-12-05T10:28:01Z</time>
      </trkpt>
      <trkpt lat="45.97141" lon="4.69778">
        <ele>252.48</ele>
        <time>2013-12-05T10:28:17Z</time>
      </trkpt>
      <trkpt lat="45.97149" lon="4.69783">
        <ele>252.96</ele>
        <time>2013-12-05T10:28:24Z</time>
      </trkpt>
      <trkpt lat="45.97154" lon="4.69785">
        <ele>252.96</ele>
        <time>2013-12-05T10:28:28Z</time>
      </trkpt>
      <trkpt lat="45.97167" lon="4.69795">
        <ele>252.96</ele>
        <time>2013-12-05T10:28:44Z</time>
      </trkpt>
      <trkpt lat="45.97172" lon="4.69799">
        <ele>252.96</ele>
        <time>2013-12-05T10:28:48Z</time>
      </trkpt>
      <trkpt lat="45.97176" lon="4.69804">
        <ele>253.44</ele>
        <time>2013-12-05T10:28:57Z</time>
      </trkpt>
      <trkpt lat="45.97177" lon="4.69805">
        <ele>252.96</ele>
        <time>2013-12-05T10:28:59Z</time>
      </trkpt>
      <trkpt lat="45.97182" lon="4.69809">
        <ele>253.44</ele>
        <time>2013-12-05T10:29:03Z</time>
      </trkpt>
      <trkpt lat="45.97202" lon="4.69824">
        <ele>254.89</ele>
        <time>2013-12-05T10:29:20Z</time>
      </trkpt>
      <trkpt lat="45.97223" lon="4.69843">
        <ele>255.85</ele>
        <time>2013-12-05T10:29:38Z</time>
      </trkpt>
      <trkpt lat="45.97231" lon="4.69851">
        <ele>256.81</ele>
        <time>2013-12-05T10:29:46Z</time>
      </trkpt>
      <trkpt lat="45.97235" lon="4.69854">
        <ele>256.81</ele>
        <time>2013-12-05T10:29:50Z</time>
      </trkpt>
      <trkpt lat="45.9724" lon="4.69864">
        <ele>257.77</ele>
        <time>2013-12-05T10:29:57Z</time>
      </trkpt>
      <trkpt lat="45.97241" lon="4.69867">
        <ele>257.29</ele>
        <time>2013-12-05T10:29:59Z</time>
      </trkpt>
      <trkpt lat="45.97255" lon="4.69891">
        <ele>258.73</ele>
        <time>2013-12-05T10:30:15Z</time>
      </trkpt>
      <trkpt lat="45.97266" lon="4.69916">
        <ele>258.25</ele>
        <time>2013-12-05T10:30:30Z</time>
      </trkpt>
      <trkpt lat="45.97275" lon="4.69941">
        <ele>257.77</ele>
        <time>2013-12-05T10:30:45Z</time>
      </trkpt>
      <trkpt lat="45.97287" lon="4.69971">
        <ele>255.85</ele>
        <time>2013-12-05T10:31:02Z</time>
      </trkpt>
      <trkpt lat="45.97299" lon="4.69999">
        <ele>254.41</ele>
        <time>2013-12-05T10:31:20Z</time>
      </trkpt>
      <trkpt lat="45.97311" lon="4.70028">
        <ele>253.44</ele>
        <time>2013-12-05T10:31:37Z</time>
      </trkpt>
      <trkpt lat="45.97323" lon="4.70054">
        <ele>252.96</ele>
        <time>2013-12-05T10:31:54Z</time>
      </trkpt>
      <trkpt lat="45.9733" lon="4.70083">
        <ele>252.48</ele>
        <time>2013-12-05T10:32:10Z</time>
      </trkpt>
      <trkpt lat="45.97337" lon="4.70115">
        <ele>251.52</ele>
        <time>2013-12-05T10:32:28Z</time>
      </trkpt>
      <trkpt lat="45.97344" lon="4.70144">
        <ele>250.56</ele>
        <time>2013-12-05T10:32:45Z</time>
      </trkpt>
      <trkpt lat="45.97346" lon="4.70154">
        <ele>249.6</ele>
        <time>2013-12-05T10:32:50Z</time>
      </trkpt>
      <trkpt lat="45.97352" lon="4.70188">
        <ele>249.12</ele>
        <time>2013-12-05T10:33:09Z</time>
      </trkpt>
      <trkpt lat="45.97357" lon="4.70218">
        <ele>246.72</ele>
        <time>2013-12-05T10:33:26Z</time>
      </trkpt>
      <trkpt lat="45.97368" lon="4.70248">
        <ele>245.75</ele>
        <time>2013-12-05T10:33:44Z</time>
      </trkpt>
      <trkpt lat="45.97388" lon="4.70271">
        <ele>244.31</ele>
        <time>2013-12-05T10:34:04Z</time>
      </trkpt>
      <trkpt lat="45.97406" lon="4.70288">
        <ele>243.83</ele>
        <time>2013-12-05T10:34:21Z</time>
      </trkpt>
      <trkpt lat="45.97425" lon="4.70299">
        <ele>242.87</ele>
        <time>2013-12-05T10:34:38Z</time>
      </trkpt>
      <trkpt lat="45.97438" lon="4.70305">
        <ele>242.39</ele>
        <time>2013-12-05T10:34:48Z</time>
      </trkpt>
      <trkpt lat="45.9745" lon="4.70314">
        <ele>241.43</ele>
        <time>2013-12-05T10:34:58Z</time>
      </trkpt>
      <trkpt lat="45.9747" lon="4.70334">
        <ele>240.95</ele>
        <time>2013-12-05T10:35:18Z</time>
      </trkpt>
      <trkpt lat="45.9748" lon="4.70338">
        <ele>239.99</ele>
        <time>2013-12-05T10:35:30Z</time>
      </trkpt>
      <trkpt lat="45.97481" lon="4.70339">
        <ele>239.51</ele>
        <time>2013-12-05T10:35:49Z</time>
      </trkpt>
      <trkpt lat="45.97484" lon="4.70342">
        <ele>239.99</ele>
        <time>2013-12-05T10:36:08Z</time>
      </trkpt>
      <trkpt lat="45.97485" lon="4.70343">
        <ele>240.47</ele>
        <time>2013-12-05T10:36:34Z</time>
      </trkpt>
      <trkpt lat="45.9749" lon="4.70347">
        <ele>239.99</ele>
        <time>2013-12-05T10:36:50Z</time>
      </trkpt>
      <trkpt lat="45.97492" lon="4.70348">
        <ele>240.95</ele>
        <time>2013-12-05T10:36:52Z</time>
      </trkpt>
      <trkpt lat="45.97499" lon="4.70366">
        <ele>239.99</ele>
        <time>2013-12-05T10:37:09Z</time>
      </trkpt>
      <trkpt lat="45.97497" lon="4.70364">
        <ele>239.51</ele>
        <time>2013-12-05T10:37:26Z</time>
      </trkpt>
      <trkpt lat="45.97496" lon="4.70364">
        <ele>239.99</ele>
        <time>2013-12-05T10:37:38Z</time>
      </trkpt>
      <trkpt lat="45.97486" lon="4.70349">
        <ele>240.47</ele>
        <time>2013-12-05T10:37:53Z</time>
      </trkpt>
      <trkpt lat="45.97476" lon="4.70342">
        <ele>240.47</ele>
        <time>2013-12-05T10:38:04Z</time>
      </trkpt>
      <trkpt lat="45.97472" lon="4.70341">
        <ele>240.47</ele>
        <time>2013-12-05T10:38:12Z</time>
      </trkpt>
      <trkpt lat="45.97463" lon="4.70333">
        <ele>241.91</ele>
        <time>2013-12-05T10:38:21Z</time>
      </trkpt>
      <trkpt lat="45.97459" lon="4.70324">
        <ele>242.39</ele>
        <time>2013-12-05T10:38:28Z</time>
      </trkpt>
      <trkpt lat="45.97461" lon="4.70312">
        <ele>242.87</ele>
        <time>2013-12-05T10:38:35Z</time>
      </trkpt>
      <trkpt lat="45.97462" lon="4.70303">
        <ele>241.91</ele>
        <time>2013-12-05T10:38:40Z</time>
      </trkpt>
      <trkpt lat="45.97463" lon="4.70288">
        <ele>242.39</ele>
        <time>2013-12-05T10:38:49Z</time>
      </trkpt>
      <trkpt lat="45.97464" lon="4.70279">
        <ele>241.43</ele>
        <time>2013-12-05T10:38:55Z</time>
      </trkpt>
      <trkpt lat="45.97465" lon="4.70257">
        <ele>240.47</ele>
        <time>2013-12-05T10:39:08Z</time>
      </trkpt>
      <trkpt lat="45.97464" lon="4.7023">
        <ele>239.51</ele>
        <time>2013-12-05T10:39:24Z</time>
      </trkpt>
      <trkpt lat="45.97464" lon="4.70219">
        <ele>239.99</ele>
        <time>2013-12-05T10:39:30Z</time>
      </trkpt>
      <trkpt lat="45.97465" lon="4.70213">
        <ele>239.02</ele>
        <time>2013-12-05T10:39:34Z</time>
      </trkpt>
      <trkpt lat="45.97465" lon="4.70204">
        <ele>239.02</ele>
        <time>2013-12-05T10:39:39Z</time>
      </trkpt>
      <trkpt lat="45.97465" lon="4.70178">
        <ele>239.02</ele>
        <time>2013-12-05T10:39:55Z</time>
      </trkpt>
      <trkpt lat="45.97464" lon="4.70177">
        <ele>238.54</ele>
        <time>2013-12-05T10:40:15Z</time>
      </trkpt>
      <trkpt lat="45.97464" lon="4.7017">
        <ele>239.02</ele>
        <time>2013-12-05T10:40:26Z</time>
      </trkpt>
      <trkpt lat="45.97465" lon="4.70156">
        <ele>238.54</ele>
        <time>2013-12-05T10:40:38Z</time>
      </trkpt>
      <trkpt lat="45.97466" lon="4.70141">
        <ele>236.14</ele>
        <time>2013-12-05T10:40:46Z</time>
      </trkpt>
      <trkpt lat="45.9747" lon="4.70115">
        <ele>236.62</ele>
        <time>2013-12-05T10:41:02Z</time>
      </trkpt>
      <trkpt lat="45.97481" lon="4.70089">
        <ele>235.66</ele>
        <time>2013-12-05T10:41:21Z</time>
      </trkpt>
      <trkpt lat="45.97484" lon="4.70079">
        <ele>235.18</ele>
        <time>2013-12-05T10:41:28Z</time>
      </trkpt>
      <trkpt lat="45.9749" lon="4.70065">
        <ele>234.7</ele>
        <time>2013-12-05T10:41:38Z</time>
      </trkpt>
      <trkpt lat="45.97499" lon="4.7004">
        <ele>234.22</ele>
        <time>2013-12-05T10:41:55Z</time>
      </trkpt>
      <trkpt lat="45.97503" lon="4.70025">
        <ele>233.26</ele>
        <time>2013-12-05T10:42:05Z</time>
      </trkpt>
      <trkpt lat="45.97505" lon="4.70004">
        <ele>233.74</ele>
        <time>2013-12-05T10:42:18Z</time>
      </trkpt>
      <trkpt lat="45.97506" lon="4.69984">
        <ele>233.74</ele>
        <time>2013-12-05T10:42:30Z</time>
      </trkpt>
      <trkpt lat="45.97506" lon="4.69978">
        <ele>233.26</ele>
        <time>2013-12-05T10:42:34Z</time>
      </trkpt>
      <trkpt lat="45.97506" lon="4.69964">
        <ele>233.26</ele>
        <time>2013-12-05T10:42:42Z</time>
      </trkpt>
      <trkpt lat="45.97505" lon="4.69936">
        <ele>232.78</ele>
        <time>2013-12-05T10:42:59Z</time>
      </trkpt>
      <trkpt lat="45.97504" lon="4.69905">
        <ele>232.78</ele>
        <time>2013-12-05T10:43:17Z</time>
      </trkpt>
      <trkpt lat="45.97503" lon="4.69876">
        <ele>232.3</ele>
        <time>2013-12-05T10:43:34Z</time>
      </trkpt>
      <trkpt lat="45.97502" lon="4.69868">
        <ele>231.81</ele>
        <time>2013-12-05T10:43:39Z</time>
      </trkpt>
      <trkpt lat="45.97502" lon="4.69863">
        <ele>232.78</ele>
        <time>2013-12-05T10:43:43Z</time>
      </trkpt>
      <trkpt lat="45.97501" lon="4.69852">
        <ele>232.3</ele>
        <time>2013-12-05T10:43:57Z</time>
      </trkpt>
      <trkpt lat="45.97501" lon="4.69843">
        <ele>232.3</ele>
        <time>2013-12-05T10:44:02Z</time>
      </trkpt>
      <trkpt lat="45.97498" lon="4.69817">
        <ele>231.81</ele>
        <time>2013-12-05T10:44:18Z</time>
      </trkpt>
      <trkpt lat="45.97499" lon="4.69789">
        <ele>230.85</ele>
        <time>2013-12-05T10:44:34Z</time>
      </trkpt>
      <trkpt lat="45.97499" lon="4.69787">
        <ele>231.33</ele>
        <time>2013-12-05T10:44:35Z</time>
      </trkpt>
      <trkpt lat="45.97501" lon="4.69773">
        <ele>230.85</ele>
        <time>2013-12-05T10:44:43Z</time>
      </trkpt>
      <trkpt lat="45.97506" lon="4.69749">
        <ele>230.37</ele>
        <time>2013-12-05T10:44:57Z</time>
      </trkpt>
      <trkpt lat="45.97507" lon="4.69743">
        <ele>230.37</ele>
        <time>2013-12-05T10:45:01Z</time>
      </trkpt>
      <trkpt lat="45.9751" lon="4.69724">
        <ele>229.41</ele>
        <time>2013-12-05T10:45:12Z</time>
      </trkpt>
      <trkpt lat="45.97515" lon="4.69698">
        <ele>228.45</ele>
        <time>2013-12-05T10:45:28Z</time>
      </trkpt>
      <trkpt lat="45.97519" lon="4.6967">
        <ele>227.49</ele>
        <time>2013-12-05T10:45:44Z</time>
      </trkpt>
      <trkpt lat="45.97523" lon="4.69649">
        <ele>226.05</ele>
        <time>2013-12-05T10:45:58Z</time>
      </trkpt>
      <trkpt lat="45.9753" lon="4.69627">
        <ele>224.61</ele>
        <time>2013-12-05T10:46:13Z</time>
      </trkpt>
      <trkpt lat="45.97543" lon="4.69611">
        <ele>223.64</ele>
        <time>2013-12-05T10:46:27Z</time>
      </trkpt>
      <trkpt lat="45.97558" lon="4.69598">
        <ele>222.68</ele>
        <time>2013-12-05T10:46:42Z</time>
      </trkpt>
      <trkpt lat="45.97564" lon="4.69594">
        <ele>222.2</ele>
        <time>2013-12-05T10:46:47Z</time>
      </trkpt>
      <trkpt lat="45.97567" lon="4.69592">
        <ele>222.2</ele>
        <time>2013-12-05T10:46:51Z</time>
      </trkpt>
      <trkpt lat="45.97569" lon="4.6959">
        <ele>222.2</ele>
        <time>2013-12-05T10:47:06Z</time>
      </trkpt>
      <trkpt lat="45.97569" lon="4.69589">
        <ele>221.72</ele>
        <time>2013-12-05T10:47:10Z</time>
      </trkpt>
      <trkpt lat="45.97561" lon="4.69563">
        <ele>220.76</ele>
        <time>2013-12-05T10:47:26Z</time>
      </trkpt>
      <trkpt lat="45.9755" lon="4.69538">
        <ele>218.84</ele>
        <time>2013-12-05T10:47:41Z</time>
      </trkpt>
      <trkpt lat="45.97538" lon="4.69508">
        <ele>217.88</ele>
        <time>2013-12-05T10:47:59Z</time>
      </trkpt>
      <trkpt lat="45.97526" lon="4.69479">
        <ele>216.43</ele>
        <time>2013-12-05T10:48:17Z</time>
      </trkpt>
      <trkpt lat="45.97517" lon="4.69449">
        <ele>215.95</ele>
        <time>2013-12-05T10:48:35Z</time>
      </trkpt>
      <trkpt lat="45.97509" lon="4.69415">
        <ele>214.99</ele>
        <time>2013-12-05T10:48:55Z</time>
      </trkpt>
      <trkpt lat="45.9751" lon="4.69399">
        <ele>213.55</ele>
        <time>2013-12-05T10:49:04Z</time>
      </trkpt>
      <trkpt lat="45.97519" lon="4.6939">
        <ele>213.07</ele>
        <time>2013-12-05T10:49:14Z</time>
      </trkpt>
      <trkpt lat="45.97539" lon="4.69381">
        <ele>210.67</ele>
        <time>2013-12-05T10:49:31Z</time>
      </trkpt>
      <trkpt lat="45.97559" lon="4.69366">
        <ele>209.22</ele>
        <time>2013-12-05T10:49:47Z</time>
      </trkpt>
      <trkpt lat="45.9758" lon="4.69354">
        <ele>208.26</ele>
        <time>2013-12-05T10:50:04Z</time>
      </trkpt>
      <trkpt lat="45.97602" lon="4.69339">
        <ele>206.82</ele>
        <time>2013-12-05T10:50:23Z</time>
      </trkpt>
      <trkpt lat="45.97622" lon="4.69323">
        <ele>206.34</ele>
        <time>2013-12-05T10:50:42Z</time>
      </trkpt>
      <trkpt lat="45.97644" lon="4.69308">
        <ele>206.34</ele>
        <time>2013-12-05T10:51:01Z</time>
      </trkpt>
      <trkpt lat="45.97659" lon="4.693">
        <ele>205.86</ele>
        <time>2013-12-05T10:51:15Z</time>
      </trkpt>
      <trkpt lat="45.97668" lon="4.69308">
        <ele>205.38</ele>
        <time>2013-12-05T10:51:28Z</time>
      </trkpt>
      <trkpt lat="45.97668" lon="4.69304">
        <ele>206.82</ele>
        <time>2013-12-05T10:51:37Z</time>
      </trkpt>
      <trkpt lat="45.97673" lon="4.69305">
        <ele>206.82</ele>
        <time>2013-12-05T10:51:41Z</time>
      </trkpt>
      <trkpt lat="45.97696" lon="4.69316">
        <ele>206.34</ele>
        <time>2013-12-05T10:51:59Z</time>
      </trkpt>
      <trkpt lat="45.97702" lon="4.69327">
        <ele>206.34</ele>
        <time>2013-12-05T10:52:11Z</time>
      </trkpt>
      <trkpt lat="45.97715" lon="4.69331">
        <ele>205.86</ele>
        <time>2013-12-05T10:52:23Z</time>
      </trkpt>
      <trkpt lat="45.9773" lon="4.69336">
        <ele>205.86</ele>
        <time>2013-12-05T10:52:35Z</time>
      </trkpt>
      <trkpt lat="45.97753" lon="4.69348">
        <ele>205.38</ele>
        <time>2013-12-05T10:52:52Z</time>
      </trkpt>
      <trkpt lat="45.97775" lon="4.69359">
        <ele>204.9</ele>
        <time>2013-12-05T10:53:09Z</time>
      </trkpt>
      <trkpt lat="45.97799" lon="4.69371">
        <ele>204.42</ele>
        <time>2013-12-05T10:53:27Z</time>
      </trkpt>
      <trkpt lat="45.97816" lon="4.69381">
        <ele>203.94</ele>
        <time>2013-12-05T10:53:40Z</time>
      </trkpt>
      <trkpt lat="45.97834" lon="4.69388">
        <ele>203.46</ele>
        <time>2013-12-05T10:53:54Z</time>
      </trkpt>
      <trkpt lat="45.97857" lon="4.69396">
        <ele>203.46</ele>
        <time>2013-12-05T10:54:11Z</time>
      </trkpt>
      <trkpt lat="45.97883" lon="4.69401">
        <ele>202.98</ele>
        <time>2013-12-05T10:54:30Z</time>
      </trkpt>
      <trkpt lat="45.97903" lon="4.69401">
        <ele>202.49</ele>
        <time>2013-12-05T10:54:45Z</time>
      </trkpt>
      <trkpt lat="45.97925" lon="4.69403">
        <ele>202.01</ele>
        <time>2013-12-05T10:55:02Z</time>
      </trkpt>
      <trkpt lat="45.97941" lon="4.6941">
        <ele>201.53</ele>
        <time>2013-12-05T10:55:14Z</time>
      </trkpt>
      <trkpt lat="45.97945" lon="4.69409">
        <ele>201.05</ele>
        <time>2013-12-05T10:55:18Z</time>
      </trkpt>
      <trkpt lat="45.97961" lon="4.69406">
        <ele>200.57</ele>
        <time>2013-12-05T10:55:32Z</time>
      </trkpt>
      <trkpt lat="45.97963" lon="4.69405">
        <ele>200.09</ele>
        <time>2013-12-05T10:55:34Z</time>
      </trkpt>
      <trkpt lat="45.97989" lon="4.69398">
        <ele>199.13</ele>
        <time>2013-12-05T10:55:54Z</time>
      </trkpt>
      <trkpt lat="45.97995" lon="4.69397">
        <ele>199.61</ele>
        <time>2013-12-05T10:55:58Z</time>
      </trkpt>
      <trkpt lat="45.98015" lon="4.69396">
        <ele>198.17</ele>
        <time>2013-12-05T10:56:14Z</time>
      </trkpt>
      <trkpt lat="45.98034" lon="4.69397">
        <ele>198.65</ele>
        <time>2013-12-05T10:56:29Z</time>
      </trkpt>
      <trkpt lat="45.98054" lon="4.69397">
        <ele>198.17</ele>
        <time>2013-12-05T10:56:45Z</time>
      </trkpt>
      <trkpt lat="45.98056" lon="4.69397">
        <ele>197.69</ele>
        <time>2013-12-05T10:56:47Z</time>
      </trkpt>
      <trkpt lat="45.98077" lon="4.69393">
        <ele>197.21</ele>
        <time>2013-12-05T10:57:04Z</time>
      </trkpt>
      <trkpt lat="45.98091" lon="4.69385">
        <ele>197.69</ele>
        <time>2013-12-05T10:57:17Z</time>
      </trkpt>
      <trkpt lat="45.98104" lon="4.69383">
        <ele>197.69</ele>
        <time>2013-12-05T10:57:34Z</time>
      </trkpt>
      <trkpt lat="45.98114" lon="4.69375">
        <ele>196.73</ele>
        <time>2013-12-05T10:57:51Z</time>
      </trkpt>
      <trkpt lat="45.98116" lon="4.69373">
        <ele>196.73</ele>
        <time>2013-12-05T10:58:07Z</time>
      </trkpt>
      <trkpt lat="45.98118" lon="4.69369">
        <ele>196.73</ele>
        <time>2013-12-05T10:58:10Z</time>
      </trkpt>
      <trkpt lat="45.98127" lon="4.69364">
        <ele>196.25</ele>
        <time>2013-12-05T10:58:18Z</time>
      </trkpt>
      <trkpt lat="45.98151" lon="4.69352">
        <ele>196.73</ele>
        <time>2013-12-05T10:58:37Z</time>
      </trkpt>
      <trkpt lat="45.98159" lon="4.69352">
        <ele>196.73</ele>
        <time>2013-12-05T10:58:43Z</time>
      </trkpt>
      <trkpt lat="45.98183" lon="4.69344">
        <ele>196.73</ele>
        <time>2013-12-05T10:59:02Z</time>
      </trkpt>
      <trkpt lat="45.98186" lon="4.69342">
        <ele>196.25</ele>
        <time>2013-12-05T10:59:04Z</time>
      </trkpt>
      <trkpt lat="45.98193" lon="4.69344">
        <ele>196.25</ele>
        <time>2013-12-05T10:59:09Z</time>
      </trkpt>
      <trkpt lat="45.98199" lon="4.69348">
        <ele>197.21</ele>
        <time>2013-12-05T10:59:15Z</time>
      </trkpt>
      <trkpt lat="45.98207" lon="4.69344">
        <ele>196.25</ele>
        <time>2013-12-05T10:59:22Z</time>
      </trkpt>
      <trkpt lat="45.98216" lon="4.69339">
        <ele>196.73</ele>
        <time>2013-12-05T10:59:36Z</time>
      </trkpt>
      <trkpt lat="45.98217" lon="4.69336">
        <ele>197.69</ele>
        <time>2013-12-05T10:59:53Z</time>
      </trkpt>
      <trkpt lat="45.98219" lon="4.69337">
        <ele>197.69</ele>
        <time>2013-12-05T11:00:05Z</time>
      </trkpt>
      <trkpt lat="45.98224" lon="4.69335">
        <ele>196.25</ele>
        <time>2013-12-05T11:00:10Z</time>
      </trkpt>
      <trkpt lat="45.98249" lon="4.69327">
        <ele>196.25</ele>
        <time>2013-12-05T11:00:28Z</time>
      </trkpt>
      <trkpt lat="45.98272" lon="4.69322">
        <ele>196.73</ele>
        <time>2013-12-05T11:00:45Z</time>
      </trkpt>
      <trkpt lat="45.98289" lon="4.69319">
        <ele>196.73</ele>
        <time>2013-12-05T11:01:00Z</time>
      </trkpt>
      <trkpt lat="45.9831" lon="4.6931">
        <ele>196.73</ele>
        <time>2013-12-05T11:01:17Z</time>
      </trkpt>
      <trkpt lat="45.98331" lon="4.693">
        <ele>196.73</ele>
        <time>2013-12-05T11:01:34Z</time>
      </trkpt>
      <trkpt lat="45.98358" lon="4.69293">
        <ele>196.73</ele>
        <time>2013-12-05T11:01:53Z</time>
      </trkpt>
      <trkpt lat="45.98385" lon="4.69294">
        <ele>196.73</ele>
        <time>2013-12-05T11:02:12Z</time>
      </trkpt>
      <trkpt lat="45.98408" lon="4.69292">
        <ele>197.69</ele>
        <time>2013-12-05T11:02:30Z</time>
      </trkpt>
      <trkpt lat="45.98427" lon="4.69292">
        <ele>198.65</ele>
        <time>2013-12-05T11:02:44Z</time>
      </trkpt>
      <trkpt lat="45.98429" lon="4.69293">
        <ele>198.65</ele>
        <time>2013-12-05T11:02:46Z</time>
      </trkpt>
      <trkpt lat="45.98438" lon="4.6931">
        <ele>199.13</ele>
        <time>2013-12-05T11:02:57Z</time>
      </trkpt>
      <trkpt lat="45.98446" lon="4.69309">
        <ele>200.09</ele>
        <time>2013-12-05T11:03:05Z</time>
      </trkpt>
      <trkpt lat="45.9846" lon="4.69296">
        <ele>200.09</ele>
        <time>2013-12-05T11:03:21Z</time>
      </trkpt>
      <trkpt lat="45.98476" lon="4.69297">
        <ele>202.98</ele>
        <time>2013-12-05T11:03:36Z</time>
      </trkpt>
      <trkpt lat="45.98488" lon="4.69308">
        <ele>205.38</ele>
        <time>2013-12-05T11:03:46Z</time>
      </trkpt>
      <trkpt lat="45.98494" lon="4.69308">
        <ele>205.86</ele>
        <time>2013-12-05T11:03:52Z</time>
      </trkpt>
      <trkpt lat="45.98508" lon="4.69313">
        <ele>209.22</ele>
        <time>2013-12-05T11:04:05Z</time>
      </trkpt>
      <trkpt lat="45.98516" lon="4.69315">
        <ele>210.67</ele>
        <time>2013-12-05T11:04:14Z</time>
      </trkpt>
      <trkpt lat="45.98518" lon="4.69316">
        <ele>210.67</ele>
        <time>2013-12-05T11:04:16Z</time>
      </trkpt>
      <trkpt lat="45.98521" lon="4.69317">
        <ele>212.11</ele>
        <time>2013-12-05T11:04:19Z</time>
      </trkpt>
      <trkpt lat="45.98538" lon="4.6933">
        <ele>214.03</ele>
        <time>2013-12-05T11:04:36Z</time>
      </trkpt>
      <trkpt lat="45.98541" lon="4.69331">
        <ele>214.99</ele>
        <time>2013-12-05T11:04:39Z</time>
      </trkpt>
      <trkpt lat="45.98557" lon="4.69347">
        <ele>217.4</ele>
        <time>2013-12-05T11:04:54Z</time>
      </trkpt>
      <trkpt lat="45.98564" lon="4.69353">
        <ele>219.8</ele>
        <time>2013-12-05T11:05:03Z</time>
      </trkpt>
      <trkpt lat="45.98567" lon="4.69356">
        <ele>219.32</ele>
        <time>2013-12-05T11:05:06Z</time>
      </trkpt>
      <trkpt lat="45.98582" lon="4.69365">
        <ele>222.2</ele>
        <time>2013-12-05T11:05:23Z</time>
      </trkpt>
      <trkpt lat="45.9859" lon="4.69374">
        <ele>223.64</ele>
        <time>2013-12-05T11:05:33Z</time>
      </trkpt>
      <trkpt lat="45.98597" lon="4.69384">
        <ele>225.09</ele>
        <time>2013-12-05T11:05:40Z</time>
      </trkpt>
      <trkpt lat="45.98602" lon="4.69392">
        <ele>225.57</ele>
        <time>2013-12-05T11:05:46Z</time>
      </trkpt>
      <trkpt lat="45.98616" lon="4.69412">
        <ele>227.97</ele>
        <time>2013-12-05T11:06:01Z</time>
      </trkpt>
      <trkpt lat="45.98628" lon="4.69426">
        <ele>230.85</ele>
        <time>2013-12-05T11:06:16Z</time>
      </trkpt>
      <trkpt lat="45.98636" lon="4.69435">
        <ele>231.33</ele>
        <time>2013-12-05T11:06:25Z</time>
      </trkpt>
      <trkpt lat="45.98651" lon="4.69451">
        <ele>234.22</ele>
        <time>2013-12-05T11:06:41Z</time>
      </trkpt>
      <trkpt lat="45.98668" lon="4.6947">
        <ele>237.1</ele>
        <time>2013-12-05T11:06:58Z</time>
      </trkpt>
      <trkpt lat="45.98669" lon="4.69471">
        <ele>237.1</ele>
        <time>2013-12-05T11:06:59Z</time>
      </trkpt>
      <trkpt lat="45.98677" lon="4.69478">
        <ele>237.58</ele>
        <time>2013-12-05T11:07:06Z</time>
      </trkpt>
      <trkpt lat="45.98679" lon="4.69481">
        <ele>237.58</ele>
        <time>2013-12-05T11:07:10Z</time>
      </trkpt>
      <trkpt lat="45.98687" lon="4.6948">
        <ele>238.06</ele>
        <time>2013-12-05T11:07:17Z</time>
      </trkpt>
      <trkpt lat="45.98692" lon="4.69473">
        <ele>238.54</ele>
        <time>2013-12-05T11:07:23Z</time>
      </trkpt>
      <trkpt lat="45.987" lon="4.69462">
        <ele>239.99</ele>
        <time>2013-12-05T11:07:34Z</time>
      </trkpt>
      <trkpt lat="45.98704" lon="4.69456">
        <ele>239.99</ele>
        <time>2013-12-05T11:07:39Z</time>
      </trkpt>
      <trkpt lat="45.98712" lon="4.69444">
        <ele>239.51</ele>
        <time>2013-12-05T11:07:49Z</time>
      </trkpt>
      <trkpt lat="45.98721" lon="4.69432">
        <ele>239.51</ele>
        <time>2013-12-05T11:08:00Z</time>
      </trkpt>
      <trkpt lat="45.9873" lon="4.69431">
        <ele>239.99</ele>
        <time>2013-12-05T11:08:08Z</time>
      </trkpt>
      <trkpt lat="45.98733" lon="4.69434">
        <ele>240.47</ele>
        <time>2013-12-05T11:08:11Z</time>
      </trkpt>
      <trkpt lat="45.98747" lon="4.69456">
        <ele>240.95</ele>
        <time>2013-12-05T11:08:27Z</time>
      </trkpt>
      <trkpt lat="45.98753" lon="4.6946">
        <ele>241.43</ele>
        <time>2013-12-05T11:08:33Z</time>
      </trkpt>
      <trkpt lat="45.98768" lon="4.69453">
        <ele>241.91</ele>
        <time>2013-12-05T11:08:48Z</time>
      </trkpt>
      <trkpt lat="45.98786" lon="4.69444">
        <ele>241.91</ele>
        <time>2013-12-05T11:09:04Z</time>
      </trkpt>
      <trkpt lat="45.98802" lon="4.69435">
        <ele>242.39</ele>
        <time>2013-12-05T11:09:19Z</time>
      </trkpt>
      <trkpt lat="45.98821" lon="4.69424">
        <ele>242.39</ele>
        <time>2013-12-05T11:09:36Z</time>
      </trkpt>
      <trkpt lat="45.98842" lon="4.69411">
        <ele>241.43</ele>
        <time>2013-12-05T11:09:53Z</time>
      </trkpt>
      <trkpt lat="45.9886" lon="4.694">
        <ele>241.43</ele>
        <time>2013-12-05T11:10:08Z</time>
      </trkpt>
      <trkpt lat="45.98879" lon="4.69396">
        <ele>241.91</ele>
        <time>2013-12-05T11:10:24Z</time>
      </trkpt>
      <trkpt lat="45.98902" lon="4.6939">
        <ele>241.43</ele>
        <time>2013-12-05T11:10:42Z</time>
      </trkpt>
      <trkpt lat="45.98923" lon="4.69386">
        <ele>241.43</ele>
        <time>2013-12-05T11:10:59Z</time>
      </trkpt>
      <trkpt lat="45.98946" lon="4.69375">
        <ele>241.43</ele>
        <time>2013-12-05T11:11:18Z</time>
      </trkpt>
      <trkpt lat="45.98968" lon="4.69371">
        <ele>241.43</ele>
        <time>2013-12-05T11:11:35Z</time>
      </trkpt>
      <trkpt lat="45.98971" lon="4.69371">
        <ele>241.43</ele>
        <time>2013-12-05T11:11:38Z</time>
      </trkpt>
      <trkpt lat="45.98985" lon="4.6937">
        <ele>241.43</ele>
        <time>2013-12-05T11:11:50Z</time>
      </trkpt>
      <trkpt lat="45.98991" lon="4.69364">
        <ele>240.95</ele>
        <time>2013-12-05T11:11:55Z</time>
      </trkpt>
      <trkpt lat="45.99005" lon="4.69362">
        <ele>240.95</ele>
        <time>2013-12-05T11:12:05Z</time>
      </trkpt>
      <trkpt lat="45.99027" lon="4.69368">
        <ele>240.95</ele>
        <time>2013-12-05T11:12:23Z</time>
      </trkpt>
      <trkpt lat="45.99029" lon="4.69367">
        <ele>241.43</ele>
        <time>2013-12-05T11:12:25Z</time>
      </trkpt>
      <trkpt lat="45.99033" lon="4.69365">
        <ele>241.43</ele>
        <time>2013-12-05T11:12:29Z</time>
      </trkpt>
      <trkpt lat="45.99055" lon="4.69359">
        <ele>241.43</ele>
        <time>2013-12-05T11:12:48Z</time>
      </trkpt>
      <trkpt lat="45.9906" lon="4.69358">
        <ele>241.43</ele>
        <time>2013-12-05T11:12:53Z</time>
      </trkpt>
      <trkpt lat="45.99067" lon="4.69357">
        <ele>241.91</ele>
        <time>2013-12-05T11:12:59Z</time>
      </trkpt>
      <trkpt lat="45.99086" lon="4.69352">
        <ele>241.91</ele>
        <time>2013-12-05T11:13:15Z</time>
      </trkpt>
      <trkpt lat="45.99107" lon="4.69345">
        <ele>242.87</ele>
        <time>2013-12-05T11:13:33Z</time>
      </trkpt>
      <trkpt lat="45.99126" lon="4.6934">
        <ele>242.87</ele>
        <time>2013-12-05T11:13:49Z</time>
      </trkpt>
      <trkpt lat="45.99142" lon="4.69334">
        <ele>243.83</ele>
        <time>2013-12-05T11:14:04Z</time>
      </trkpt>
      <trkpt lat="45.99157" lon="4.6933">
        <ele>244.31</ele>
        <time>2013-12-05T11:14:18Z</time>
      </trkpt>
      <trkpt lat="45.99169" lon="4.69339">
        <ele>243.83</ele>
        <time>2013-12-05T11:14:31Z</time>
      </trkpt>
      <trkpt lat="45.99174" lon="4.69339">
        <ele>243.83</ele>
        <time>2013-12-05T11:14:45Z</time>
      </trkpt>
      <trkpt lat="45.99174" lon="4.6934">
        <ele>244.31</ele>
        <time>2013-12-05T11:14:53Z</time>
      </trkpt>
      <trkpt lat="45.99176" lon="4.6934">
        <ele>242.87</ele>
        <time>2013-12-05T11:15:10Z</time>
      </trkpt>
      <trkpt lat="45.99181" lon="4.69338">
        <ele>243.83</ele>
        <time>2013-12-05T11:15:23Z</time>
      </trkpt>
      <trkpt lat="45.99178" lon="4.69343">
        <ele>243.83</ele>
        <time>2013-12-05T11:15:42Z</time>
      </trkpt>
      <trkpt lat="45.99178" lon="4.69344">
        <ele>244.31</ele>
        <time>2013-12-05T11:16:01Z</time>
      </trkpt>
      <trkpt lat="45.9918" lon="4.69345">
        <ele>242.87</ele>
        <time>2013-12-05T11:16:16Z</time>
      </trkpt>
      <trkpt lat="45.99179" lon="4.69344">
        <ele>243.35</ele>
        <time>2013-12-05T11:16:34Z</time>
      </trkpt>
      <trkpt lat="45.99181" lon="4.69345">
        <ele>243.83</ele>
        <time>2013-12-05T11:16:49Z</time>
      </trkpt>
      <trkpt lat="45.99185" lon="4.6934">
        <ele>243.83</ele>
        <time>2013-12-05T11:17:08Z</time>
      </trkpt>
      <trkpt lat="45.9918" lon="4.69343">
        <ele>243.83</ele>
        <time>2013-12-05T11:17:24Z</time>
      </trkpt>
      <trkpt lat="45.99179" lon="4.69343">
        <ele>243.35</ele>
        <time>2013-12-05T11:17:38Z</time>
      </trkpt>
      <trkpt lat="45.99178" lon="4.69345">
        <ele>243.35</ele>
        <time>2013-12-05T11:17:58Z</time>
      </trkpt>
      <trkpt lat="45.9918" lon="4.69344">
        <ele>243.35</ele>
        <time>2013-12-05T11:18:13Z</time>
      </trkpt>
      <trkpt lat="45.99181" lon="4.69341">
        <ele>242.87</ele>
        <time>2013-12-05T11:18:22Z</time>
      </trkpt>
      <trkpt lat="45.99181" lon="4.69341">
        <ele>239.51</ele>
        <time>2013-12-05T11:18:23Z</time>
      </trkpt>
      <trkpt lat="45.99181" lon="4.6934">
        <ele>239.51</ele>
        <time>2013-12-05T11:18:24Z</time>
      </trkpt>
      <trkpt lat="45.99173" lon="4.69534">
        <ele>239.02</ele>
        <time>2013-12-05T11:20:46Z</time>
      </trkpt>
      <trkpt lat="45.99172" lon="4.6955">
        <ele>238.54</ele>
        <time>2013-12-05T11:20:48Z</time>
      </trkpt>
    </trkseg>
  </trk>
</gpx>